Ship Status Report: callsign 000000

sailwx.info

Track history (hours):
 
Tides and Currents Weather Stations Pressure Air Temp Water Temp Dewpoint Dewpoint Depression Visibility Wind Speed Wind Dir Waves Ship Positions

Callsign 000000 (name unknown)

Last reported at 2015-Jun-30 07:33 UTC. Time now 2015-Jun-30 08:23 UTC.
Position N 23°39' E 117°36'.

Type: Fishing. MMSI: 200007452.

Date/timePositionNaut miles runAvg speedWind from/ knotsBaromVisibWave heightAir tempDewpointWater temp
2015-Jun-30 07:33N 23°39' E 117°36'17122828.5
2015-Jun-30 07:33N 25°58' E 119°26'368442188.2
2015-Jun-30 07:33N 23°04' E 113°29'656337264.0
2015-Jun-30 07:33N 31°22' E 121°29'4412278.3
2015-Jun-30 07:32N 31°55' E 120°54'66274487.3
2015-Jun-30 07:32N 23°05' E 113°26'12485.9
2015-Jun-30 07:30N 22°56' E 113°34'66719853.1
2015-Jun-30 07:28N 32°01' E 120°47'0 4.5
2015-Jun-30 07:24N 32°01' E 120°47'66336163.8
2015-Jun-30 07:23N 23°02' E 113°32'3398.4
2015-Jun-30 07:23N 23°04' E 113°29'0 0.1
2015-Jun-30 06:33N 23°04' E 113°29'23542252.3
2015-Jun-30 06:33N 23°43' E 117°41'23725874.0
2015-Jun-30 06:32N 23°05' E 113°26'7433.2
2015-Jun-30 06:31N 23°01' E 113°32'66361180.7
2015-Jun-30 06:31N 31°55' E 120°54'7653.4
2015-Jun-30 06:30N 32°00' E 120°49'3706310.7
2015-Jun-30 06:27N 25°58' E 119°26'77911929.5
2015-Jun-30 06:23N 38°49' E 121°36'10335112.8
2015-Jun-30 06:11N 23°04' E 113°29'10132.3
2015-Jun-30 06:06N 22°56' E 113°34'1221.5
2015-Jun-30 05:33N 23°05' E 113°26'3206.3
2015-Jun-30 05:32N 23°04' E 113°29'24111554.9
2015-Jun-30 05:31N 23°48' E 117°47'23818631.1
2015-Jun-30 05:30N 22°56' E 113°34'668141361.6
2015-Jun-30 05:30N 32°00' E 120°49'71654.1
2015-Jun-30 05:30N 31°55' E 120°54'10358.2
2015-Jun-30 05:28N 32°01' E 120°44'37016027.1
2015-Jun-30 05:27N 25°58' E 119°26'3685643.8
2015-Jun-30 05:23N 23°04' E 113°29'466.5
2015-Jun-30 05:19N 23°01' E 113°32'7 9.2
2015-Jun-30 04:33N 23°05' E 113°26'31263.6
2015-Jun-30 04:33N 23°04' E 113°29'663341012.0
2015-Jun-30 04:33N 32°00' E 120°49'512167626.8
2015-Jun-30 04:33N 23°53' E 117°51'2445419.2
2015-Jun-30 04:30N 23°01' E 113°32'4984.7
2015-Jun-30 04:30N 23°04' E 113°29'2403.6
2015-Jun-30 04:30N 23°03' E 113°30'3687086.0
2015-Jun-30 04:27N 25°58' E 119°26'3656175.5
2015-Jun-30 04:23N 31°55' E 120°54'8630.8
2015-Jun-30 04:22N 32°01' E 120°47'0 4.9
2015-Jun-30 04:19N 32°01' E 120°48'664880.2
2015-Jun-30 03:33N 23°05' E 113°26'310059.6
2015-Jun-30 03:33N 23°04' E 113°29'25182038.6
2015-Jun-30 03:33N 23°58' E 117°56'506260247.4
2015-Jun-30 03:33N 32°00' E 120°49'72471.8
2015-Jun-30 03:33N 31°55' E 120°54'36559790.0
2015-Jun-30 03:33N 25°58' E 119°26'379341499.6
2015-Jun-30 03:33N 22°17' E 113°48'69333276.4
2015-Jun-30 03:31N 32°01' E 120°47'023.0
2015-Jun-30 03:31N 32°01' E 120°48'66441957.5
2015-Jun-30 03:30N 23°01' E 113°32'8492.7
2015-Jun-30 03:29N 23°02' E 113°23'633.9
2015-Jun-30 03:18N 23°04' E 113°29'3751511.7
2015-Jun-30 03:03N 22°38' E 120°15'5631139.1
2015-Jun-30 02:34N 32°00' E 120°49'6941248462.4
2015-Jun-30 02:33N 22°17' E 113°47'5136467.2
2015-Jun-30 02:33N 23°04' E 113°29'661216432.7
2015-Jun-30 02:33N 31°55' E 120°54'662340513.4
2015-Jun-30 02:33N 23°05' E 113°26'258116231.5
2015-Jun-30 02:33N 24°03' E 118°01'13819171.1
2015-Jun-30 02:33N 25°58' E 119°26'37017542.2
2015-Jun-30 02:31N 32°01' E 120°47'027.1
2015-Jun-30 02:31N 32°01' E 120°48'66311203.1
2015-Jun-30 02:27N 23°04' E 113°29'6607495.3
2015-Jun-30 02:22N 31°43' E 121°09'6618564.3
2015-Jun-30 02:17N 23°01' E 113°32'663909.7
2015-Jun-30 01:33N 31°55' E 120°54'6611190379.6
2015-Jun-30 01:33N 23°04' E 113°29'261313679.7
2015-Jun-30 01:33N 24°08' E 118°06'494111208.3
2015-Jun-30 01:33N 32°00' E 120°49'37038045.8
2015-Jun-30 01:33N 25°58' E 119°26'37018263.1
2015-Jun-30 01:31N 32°01' E 120°47'025.5
2015-Jun-30 01:31N 32°01' E 120°48'66362795.6
2015-Jun-30 01:30N 23°04' E 113°29'012.6
2015-Jun-30 01:30N 23°04' E 113°29'4207.3
2015-Jun-30 01:28N 23°01' E 113°32'665721.0
2015-Jun-30 00:33N 32°00' E 120°49'663596748.9
2015-Jun-30 00:33N 23°04' E 113°29'661132264.4
2015-Jun-30 00:33N 31°55' E 120°54'36577375.4
2015-Jun-30 00:33N 25°58' E 119°26'3687894.6
2015-Jun-30 00:30N 23°04' E 113°29'66328070.7
2015-Jun-30 00:28N 32°01' E 120°47'66488574.5
2015-Jun-30 00:28N 23°01' E 113°32'664217428.0
2015-Jun-30 00:28N 32°01' E 120°48'66361185.4
2015-Jun-30 00:27N 23°04' E 113°29'10653465.3
2015-Jun-30 00:09N 39°58' E 119°50'10651812.1
2015-Jun-29 23:33N 23°04' E 113°29'663238701.3
2015-Jun-29 23:33N 32°00' E 120°49'7886.7
2015-Jun-29 23:33N 31°55' E 120°54'486249988.4
2015-Jun-29 23:33N 39°58' E 119°50'841378348.3
2015-Jun-29 23:32N 25°58' E 119°26'37019322.1
2015-Jun-29 23:31N 32°01' E 120°47'026.9
2015-Jun-29 23:31N 32°01' E 120°48'66324600.5
2015-Jun-29 23:29N 23°04' E 113°29'27332731.9
2015-Jun-29 23:29N 24°15' E 118°17'2712204.6
2015-Jun-29 23:21N 23°01' E 113°32'416.3
2015-Jun-29 23:06N 23°04' E 113°29'0 0.3
2015-Jun-29 22:33N 23°04' E 113°29'663159148.0
2015-Jun-29 22:33N 32°00' E 120°49'48045493.8
2015-Jun-29 22:33N 39°58' E 119°50'486174989.7
2015-Jun-29 22:32N 31°55' E 120°54'661125296.7
2015-Jun-29 22:32N 23°04' E 113°29'27726991.5
2015-Jun-29 22:31N 24°18' E 118°21'4812958.7
2015-Jun-29 22:22N 32°01' E 120°48'0 7.0
2015-Jun-29 22:19N 32°01' E 120°47'6638869.7
2015-Jun-29 22:15N 23°04' E 113°29'663955.2
2015-Jun-29 21:33N 32°00' E 120°49'255215.0
2015-Jun-29 21:33N 31°43' E 121°09'660339454.3
2015-Jun-29 21:33N 23°04' E 113°29'1065239533.3
2015-Jun-29 21:32N 39°58' E 119°50'940376101.6
2015-Jun-29 21:32N 24°21' E 118°25'473283644.5
2015-Jun-29 21:32N 31°55' E 120°54'661216431.2
2015-Jun-29 21:32N 23°04' E 113°29'6304.3
2015-Jun-29 21:31N 23°02' E 113°23'668160278.1
2015-Jun-29 21:31N 32°01' E 120°48'0 7.1
2015-Jun-29 21:28N 32°01' E 120°47'66325382.4
2015-Jun-29 21:27N 23°04' E 113°29'4363.6
2015-Jun-29 21:26N 23°01' E 113°32'664753.9
2015-Jun-29 20:33N 32°00' E 120°49'663477428.6
2015-Jun-29 20:33N 23°04' E 113°29'661476178.3
2015-Jun-29 20:33N 31°55' E 120°54'48656448.9
2015-Jun-29 20:32N 39°58' E 119°50'1065153302.3
2015-Jun-29 20:32N 23°04' E 113°29'0154.4
2015-Jun-29 20:32N 23°04' E 113°29'6639740.5
2015-Jun-29 20:28N 32°01' E 120°47'0 2.7
2015-Jun-29 20:22N 32°01' E 120°48'66417203.4
2015-Jun-29 20:19N 23°01' E 113°32'4152.0
2015-Jun-29 20:18N 23°04' E 113°29'2882597.0
2015-Jun-29 20:11N 24°24' E 118°31'3701330885.3
2015-Jun-29 20:11N 29°43' E 122°02'151239.6
2015-Jun-29 19:33N 32°00' E 120°49'76179.4
2015-Jun-29 19:33N 31°55' E 120°54'48640695.7
2015-Jun-29 19:32N 39°58' E 119°50'620117415.7
2015-Jun-29 19:32N 29°48' E 122°05'6142210508.6
2015-Jun-29 19:32N 23°04' E 113°29'0650.1
2015-Jun-29 19:32N 23°04' E 113°29'4212.1
2015-Jun-29 19:31N 23°01' E 113°32'664265693.9
2015-Jun-29 19:31N 32°01' E 120°48'66339769.7
2015-Jun-29 19:30N 23°04' E 113°29'66320929.8
2015-Jun-29 19:28N 32°01' E 120°47'663731.1
2015-Jun-29 18:33N 23°04' E 113°29'663140420.2
2015-Jun-29 18:33N 32°00' E 120°49'74965.6
2015-Jun-29 18:33N 31°55' E 120°54'66139679.0
2015-Jun-29 18:32N 23°04' E 113°29'61836494.0
2015-Jun-29 18:31N 29°56' E 122°04'61828177.9
2015-Jun-29 18:30N 23°04' E 113°29'659131780.8
2015-Jun-29 18:29N 31°42' E 121°08'500450440.2
2015-Jun-29 18:29N 39°58' E 119°50'47927389.5
2015-Jun-29 18:28N 32°01' E 120°47'66318640.8
2015-Jun-29 18:26N 23°04' E 113°29'0 0.1
2015-Jun-29 17:33N 23°04' E 113°29'62953936.2
2015-Jun-29 17:33N 30°58' E 121°14'54585256.2
2015-Jun-29 17:32N 39°58' E 119°50'1065225437.3
2015-Jun-29 17:32N 23°04' E 113°29'0 1.2
2015-Jun-29 17:26N 23°04' E 113°29'496.3
2015-Jun-29 17:24N 23°01' E 113°32'6639899.3
2015-Jun-29 17:20N 31°55' E 120°54'662859.8
2015-Jun-29 16:33N 23°04' E 113°28'66299232.2
2015-Jun-29 16:33N 31°55' E 120°54'48640691.8
2015-Jun-29 16:32N 39°58' E 119°50'1065225436.9
2015-Jun-29 16:32N 23°04' E 113°29'0 0.7
2015-Jun-29 16:26N 23°04' E 113°29'6597210.0
2015-Jun-29 16:21N 31°42' E 121°08'251275.9
2015-Jun-29 16:20N 32°00' E 120°49'2499.0
2015-Jun-29 16:19N 32°01' E 120°47'0 4.9
2015-Jun-29 16:16N 32°01' E 120°48'691204.1
2015-Jun-29 16:12N 30°59' E 121°22'63625162.8
2015-Jun-29 16:11N 23°01' E 113°32'915.0
2015-Jun-29 15:33N 23°02' E 113°22'669240745.6
2015-Jun-29 15:33N 32°00' E 120°49'48033245.4
2015-Jun-29 15:32N 39°58' E 119°50'48672906.1
2015-Jun-29 15:32N 31°55' E 120°54'8912.2
2015-Jun-29 15:31N 32°01' E 120°47'66413982.9
2015-Jun-29 15:28N 23°01' E 113°32'30935908.8
2015-Jun-29 15:28N 24°42' E 118°51'31014898.7
2015-Jun-29 15:27N 23°04' E 113°29'0 2.3
2015-Jun-29 15:23N 23°04' E 113°29'0 1.4
2015-Jun-29 15:20N 23°04' E 113°29'65912227.5
2015-Jun-29 15:17N 31°42' E 121°08'36393.5
2015-Jun-29 15:11N 31°28' E 121°47'5992.4
2015-Jun-29 14:33N 32°00' E 120°49'446145916.6
2015-Jun-29 14:33N 24°46' E 118°55'10012889.9
2015-Jun-29 14:32N 23°38' E 117°34'987253696.0
2015-Jun-29 14:32N 39°58' E 119°50'1065273749.3
2015-Jun-29 14:32N 23°04' E 113°29'66860122.0
2015-Jun-29 14:31N 31°24' E 121°48'6687707.9
2015-Jun-29 14:26N 23°04' E 113°29'459.9
2015-Jun-29 14:22N 23°01' E 113°32'66316800.3
2015-Jun-29 14:19N 31°55' E 120°54'8621.2
2015-Jun-29 14:19N 32°01' E 120°48'441586.9
2015-Jun-29 13:34N 24°50' E 118°60'319104399.5
2015-Jun-29 13:33N 23°01' E 113°32'106758210.0
2015-Jun-29 13:32N 39°58' E 119°50'106519960.8
2015-Jun-29 13:29N 23°04' E 113°29'9365.8
2015-Jun-29 13:27N 23°03' E 113°19'9457.3
2015-Jun-29 13:26N 23°04' E 113°29'66115560.3
2015-Jun-29 13:24N 31°55' E 120°54'8359.9
2015-Jun-29 13:22N 32°01' E 120°47'281.9
2015-Jun-29 13:21N 32°00' E 120°49'58252.5
2015-Jun-29 13:07N 31°17' E 121°34'65524047.4
2015-Jun-29 13:06N 23°04' E 113°29'4 7.3
2015-Jun-29 12:33N 23°03' E 113°25'65426458.7
2015-Jun-29 12:32N 31°15' E 121°30'501251.3
2015-Jun-29 12:30N 31°55' E 120°54'48687494.7
2015-Jun-29 12:29N 39°58' E 119°50'106525380.9
2015-Jun-29 12:27N 23°04' E 113°29'441.6
2015-Jun-29 12:21N 23°01' E 113°32'4572.5
2015-Jun-29 12:20N 23°04' E 113°29'1 3.2
2015-Jun-29 12:06N 23°04' E 113°30'10651870.6
2015-Jun-29 11:32N 39°58' E 119°50'1067768372.1
2015-Jun-29 11:32N 23°01' E 113°32'2260.5
2015-Jun-29 11:32N 23°03' E 113°32'293.8
2015-Jun-29 11:30N 23°04' E 113°30'6615361.1
2015-Jun-29 11:23N 31°55' E 120°54'7155.5
2015-Jun-29 11:20N 32°00' E 120°49'84107.2
2015-Jun-29 10:34N 31°03' E 122°01'274870.3
2015-Jun-29 10:33N 31°01' E 121°29'54332049.9
2015-Jun-29 10:32N 39°58' E 119°50'1065425827.6
2015-Jun-29 10:32N 23°04' E 113°29'128.8
2015-Jun-29 10:30N 23°04' E 113°30'36824535.3
2015-Jun-29 10:30N 25°58' E 119°26'36426767.3
2015-Jun-29 10:29N 23°05' E 113°34'584.0
2015-Jun-29 10:25N 23°01' E 113°32'66341133.3
2015-Jun-29 10:24N 31°55' E 120°54'71307.6
2015-Jun-29 10:24N 32°00' E 120°49'248.7
2015-Jun-29 10:22N 32°01' E 120°47'030.1
2015-Jun-29 10:22N 32°01' E 120°48'6635777.8
2015-Jun-29 10:15N 23°04' E 113°29'1191.7
2015-Jun-29 10:08N 22°57' E 113°38'6611157.9
2015-Jun-29 09:33N 31°08' E 121°53'6927481.8
2015-Jun-29 09:33N 31°55' E 120°54'6072361.9
2015-Jun-29 09:33N 30°59' E 121°20'6726792.0
2015-Jun-29 09:33N 32°00' E 120°49'48030329.2
2015-Jun-29 09:32N 39°58' E 119°50'106751224.8
2015-Jun-29 09:31N 23°01' E 113°32'4386.6
2015-Jun-29 09:30N 23°04' E 113°30'162.5
2015-Jun-29 09:30N 23°04' E 113°29'368165783.8
2015-Jun-29 09:30N 25°58' E 119°26'37011591.4
2015-Jun-29 09:28N 32°01' E 120°48'0200.7
2015-Jun-29 09:28N 32°01' E 120°47'5134385.8
2015-Jun-29 09:21N 23°54' E 117°44'23934480.1
2015-Jun-29 09:20N 23°04' E 113°29'6503243.3
2015-Jun-29 09:08N 31°58' E 120°26'79137.0
2015-Jun-29 08:33N 31°17' E 121°45'349385.7
2015-Jun-29 08:33N 30°57' E 121°13'60216142.5
2015-Jun-29 08:33N 31°55' E 120°54'66343402.9
2015-Jun-29 08:32N 22°57' E 113°37'1070296185.0
2015-Jun-29 08:32N 39°58' E 119°50'106735573.0
2015-Jun-29 08:30N 23°01' E 113°32'665199355.5
2015-Jun-29 08:30N 32°00' E 120°49'37038045.8
2015-Jun-29 08:30N 25°58' E 119°26'36472885.8
2015-Jun-29 08:29N 31°58' E 120°26'650179903.9
2015-Jun-29 08:29N 23°04' E 113°29'66348694.3
2015-Jun-29 08:28N 32°01' E 120°47'66326510.5
2015-Jun-29 08:27N 23°04' E 113°29'667752.8
2015-Jun-29 07:34N 31°24' E 121°47'667109223.7
2015-Jun-29 07:33N 23°04' E 113°29'104402.1
2015-Jun-29 07:33N 22°57' E 113°37'62864570.3
2015-Jun-29 07:32N 31°01' E 121°06'62793998.0
2015-Jun-29 07:32N 23°04' E 113°29'66328759.1
2015-Jun-29 07:31N 32°00' E 120°49'14815.4
2015-Jun-29 07:31N 32°01' E 120°48'66442704.0
2015-Jun-29 07:30N 23°01' E 113°32'368120417.9
2015-Jun-29 07:30N 25°58' E 119°26'841121070.4
2015-Jun-29 07:29N 39°58' E 119°50'48128845.6
2015-Jun-29 07:28N 31°58' E 120°26'24648.4
2015-Jun-29 07:26N 31°55' E 120°54'6615337.1
2015-Jun-29 07:18N 23°04' E 113°30'665868.7
2015-Jun-29 06:33N 31°30' E 121°35'51568713.9
2015-Jun-29 06:32N 39°58' E 119°50'1065958139.5
2015-Jun-29 06:32N 23°04' E 113°29'35118308.4
2015-Jun-29 06:31N 25°15' E 119°26'35040699.1
2015-Jun-29 06:30N 23°04' E 113°30'4168.5
2015-Jun-29 06:29N 23°01' E 113°32'66445116.8
2015-Jun-29 06:28N 32°01' E 120°47'2102.0
2015-Jun-29 06:27N 32°00' E 120°49'37057894.1
2015-Jun-29 06:27N 25°58' E 119°26'368147350.0
2015-Jun-29 06:27N 23°04' E 113°29'66176796.2
2015-Jun-29 06:26N 31°55' E 120°54'18381.6
2015-Jun-29 06:23N 31°42' E 121°10'66525210.3
2015-Jun-29 06:22N 23°02' E 113°23'6683344.8
2015-Jun-29 06:10N 32°01' E 120°48'409674.7
2015-Jun-29 05:33N 25°17' E 119°31'8321497987.1
2015-Jun-29 05:33N 39°05' E 117°45'450161994.3
2015-Jun-29 05:33N 32°00' E 120°49'72254.0
2015-Jun-29 05:33N 31°55' E 120°54'365219237.2
2015-Jun-29 05:33N 25°58' E 119°26'3687054.0
2015-Jun-29 05:30N 23°04' E 113°29'1065100856.4
2015-Jun-29 05:29N 39°58' E 119°50'1067109768.0
2015-Jun-29 05:28N 23°01' E 113°32'430.0
2015-Jun-29 05:20N 23°04' E 113°29'6603360.6
2015-Jun-29 05:08N 31°42' E 121°10'35774.8
2015-Jun-29 05:06N 32°01' E 120°35'405749.2
2015-Jun-29 04:33N 25°19' E 119°36'3791362664.9
2015-Jun-29 04:33N 31°19' E 121°48'34488540.7
2015-Jun-29 04:33N 25°58' E 119°26'36569232.9
2015-Jun-29 04:32N 31°55' E 120°54'48664807.8
2015-Jun-29 04:32N 39°58' E 119°50'106527181.3
2015-Jun-29 04:30N 23°04' E 113°29'657337915.3
2015-Jun-29 04:30N 32°00' E 120°38'33299.5
2015-Jun-29 04:23N 31°42' E 121°10'47025254.1
2015-Jun-29 04:22N 39°04' E 117°51'9851182244.7
2015-Jun-29 04:22N 23°04' E 113°29'66356839.9
2015-Jun-29 04:21N 32°00' E 120°49'6657338.3
2015-Jun-29 04:16N 23°01' E 113°32'6646498.4
2015-Jun-29 04:10N 32°01' E 120°48'66225343.1
2015-Jun-29 04:08N 23°04' E 113°32'236.6
2015-Jun-29 04:04N 23°04' E 113°30'1 1.1
2015-Jun-29 03:34N 23°03' E 113°30'663341013.0
2015-Jun-29 03:33N 32°01' E 120°47'2433.5
2015-Jun-29 03:33N 32°00' E 120°49'5338.5
2015-Jun-29 03:32N 32°01' E 120°44'47975011.1
2015-Jun-29 03:32N 39°58' E 119°50'48683324.3
2015-Jun-29 03:32N 31°55' E 120°54'8488.1
2015-Jun-29 03:31N 32°01' E 120°48'27472.6
2015-Jun-29 03:27N 31°42' E 121°10'35644228.9
2015-Jun-29 03:27N 25°58' E 119°26'37611278.8
2015-Jun-29 03:25N 23°03' E 113°21'98939540.9
2015-Jun-29 03:23N 39°04' E 117°50'98514843.4
2015-Jun-29 03:19N 23°04' E 113°30'65659070.3
2015-Jun-29 03:19N 32°04' E 120°30'65641458.6
2015-Jun-29 03:18N 23°04' E 113°29'4101.7
2015-Jun-29 03:15N 23°01' E 113°32'664948.7
2015-Jun-29 02:33N 32°00' E 120°49'0465.3
2015-Jun-29 02:33N 32°00' E 120°49'666299725.4
2015-Jun-29 02:33N 23°03' E 113°25'372103072.2
2015-Jun-29 02:33N 25°58' E 119°26'3685076.3
2015-Jun-29 02:28N 23°04' E 113°30'4125.4
2015-Jun-29 02:27N 23°01' E 113°32'1598.5
2015-Jun-29 02:18N 23°04' E 113°16'5 6.7
2015-Jun-29 01:33N 23°02' E 113°21'10433.3
2015-Jun-29 01:32N 23°01' E 113°32'3682417.2
2015-Jun-29 01:23N 25°58' E 119°26'3802105.7
2015-Jun-29 01:12N 22°17' E 113°48'4668.7
2015-Jun-29 00:32N 23°01' E 113°32'4144.5
2015-Jun-29 00:30N 23°04' E 113°29'36828832.4
2015-Jun-29 00:29N 25°58' E 119°26'1859.1
2015-Jun-29 00:11N 25°44' E 119°39'372560.4
2015-Jun-28 23:31N 23°01' E 113°32'37615374.3
2015-Jun-28 23:29N 25°49' E 119°41'161686.9
2015-Jun-28 23:29N 25°58' E 119°26'3686501.4
2015-Jun-28 23:26N 23°04' E 113°29'973.6
2015-Jun-28 23:18N 23°03' E 113°19'5 7.0
2015-Jun-28 22:33N 23°03' E 113°25'434.7
2015-Jun-28 22:25N 23°04' E 113°29'4218.0
2015-Jun-28 22:24N 23°01' E 113°32'1 1.7
2015-Jun-28 21:32N 23°02' E 113°31'140.3
2015-Jun-28 21:30N 23°01' E 113°32'4215.1
2015-Jun-28 21:28N 23°04' E 113°29'4 4.6
2015-Jun-28 20:32N 23°01' E 113°32'6117.3
2015-Jun-28 20:28N 22°54' E 113°30'2402581.3
2015-Jun-28 20:23N 23°55' E 117°44'238280.4
2015-Jun-28 19:32N 22°56' E 113°33'9144.6
2015-Jun-28 19:28N 23°04' E 113°29'1314.3
2015-Jun-28 18:32N 22°52' E 113°34'1350.3
2015-Jun-28 18:16N 23°04' E 113°29'0 0.0
2015-Jun-28 17:28N 23°04' E 113°29'19194.4
2015-Jun-28 17:23N 22°47' E 113°38'1920.9
2015-Jun-28 16:28N 23°04' E 113°29'0 0.1
2015-Jun-28 15:28N 23°04' E 113°29'662652.9
2015-Jun-28 14:28N 31°30' E 121°30'66219070.0
2015-Jun-28 14:26N 23°04' E 113°29'3 3.7
2015-Jun-28 13:33N 23°04' E 113°25'66258095.4
2015-Jun-28 13:33N 31°28' E 121°28'8 8.3
2015-Jun-28 12:33N 31°23' E 121°36'6672896.9
2015-Jun-28 12:19N 23°03' E 113°19'668885.8
2015-Jun-28 11:33N 31°18' E 121°44'66711163.9
2015-Jun-28 11:30N 23°02' E 113°23'988177923.7
2015-Jun-28 11:30N 37°37' E 122°17'85530794.0
2015-Jun-28 11:28N 23°53' E 117°49'153397.6
2015-Jun-28 11:05N 25°58' E 119°26'371701.7
2015-Jun-28 10:33N 23°04' E 113°26'37017312.1
2015-Jun-28 10:32N 25°58' E 119°25'3427193.7
2015-Jun-28 10:29N 31°22' E 121°30'656706.1
2015-Jun-28 09:33N 23°04' E 113°29'98637751.5
2015-Jun-28 09:32N 37°43' E 122°06'7194190.6
2015-Jun-28 09:21N 25°57' E 119°23'722606.6
2015-Jun-28 08:10N 37°47' E 121°59'102312962.6
2015-Jun-28 08:05N 22°17' E 113°48'10231936.9
2015-Jun-28 07:33N 37°49' E 121°56'210209.4
2015-Jun-28 06:33N 39°05' E 117°45'2087077.6
2015-Jun-28 06:31N 37°50' E 121°54'9877726.5
2015-Jun-28 06:24N 23°03' E 113°31'9871170.6
2015-Jun-28 05:33N 39°04' E 117°50'2042571.9
2015-Jun-28 05:28N 37°50' E 121°54'0 0.0
2015-Jun-28 04:28N 37°50' E 121°54'2052216.0
2015-Jun-28 04:23N 39°04' E 117°50'1028925194.6
2015-Jun-28 04:23N 22°17' E 113°48'10281243.8
2015-Jun-28 03:33N 39°05' E 117°44'2105096.7
2015-Jun-28 03:31N 37°50' E 121°54'204199.7
2015-Jun-28 02:30N 39°04' E 117°51'1029740630.5
2015-Jun-28 02:29N 22°16' E 113°49'511166.9
2015-Jun-28 02:27N 23°04' E 113°29'9863431.3
2015-Jun-28 02:10N 37°50' E 121°54'0 0.0
2015-Jun-28 01:31N 37°50' E 121°54'20617680.9
2015-Jun-28 01:30N 39°04' E 117°48'10284023.1
2015-Jun-28 01:15N 22°17' E 113°48'10231394.3
2015-Jun-28 00:31N 37°50' E 121°54'98615996.3
2015-Jun-28 00:27N 23°04' E 113°29'0 0.0
2015-Jun-27 23:27N 23°04' E 113°29'910.1
2015-Jun-27 22:32N 23°03' E 113°19'931.7
2015-Jun-27 22:15N 23°04' E 113°29'4 5.3
2015-Jun-27 21:33N 23°04' E 113°25'410.6
2015-Jun-27 21:12N 23°04' E 113°29'0 0.3
2015-Jun-27 20:33N 23°04' E 113°29'683653972.3
2015-Jun-27 20:25N 33°27' W 117°42'587796174.7
2015-Jun-27 20:22N 37°50' E 121°54'98716441.7
2015-Jun-27 20:18N 23°04' E 113°29'1352.7
2015-Jun-27 20:04N 22°52' E 113°32'1324.9
2015-Jun-27 19:33N 23°04' E 113°29'24151100.8
2015-Jun-27 19:33N 23°53' E 117°47'862106952.4
2015-Jun-27 19:32N 37°48' E 121°53'98524293.2
2015-Jun-27 19:30N 23°04' E 113°29'0 0.2
2015-Jun-27 18:33N 23°04' E 113°29'98472309.8
2015-Jun-27 18:32N 37°47' E 121°53'984997.8
2015-Jun-27 17:33N 23°04' E 113°29'0 2.9
2015-Jun-27 17:30N 23°04' E 113°29'684129853.0
2015-Jun-27 17:16N 33°21' W 117°39'2 3.2
2015-Jun-27 16:33N 33°23' W 117°41'68394103237.6
2015-Jun-27 16:33N 23°04' E 113°29'0 0.0
2015-Jun-27 15:32N 23°04' E 113°29'0 4.0
2015-Jun-27 15:30N 23°04' E 113°29'6835683530.2
2015-Jun-27 15:29N 33°21' W 117°46'68357297.4
2015-Jun-27 14:33N 23°04' E 113°29'0 2.7
2015-Jun-27 14:30N 23°04' E 113°29'6835203369.9
2015-Jun-27 14:28N 33°19' W 117°47'68357488.6
2015-Jun-27 13:33N 23°04' E 113°29'6838153856.0
2015-Jun-27 13:31N 33°19' W 117°44'6838745973.8
2015-Jun-27 13:30N 23°04' E 113°29'10808.2
2015-Jun-27 13:29N 22°55' E 113°33'910.1
2015-Jun-27 12:33N 23°04' E 113°30'114.3
2015-Jun-27 12:30N 23°04' E 113°29'4162.3
2015-Jun-27 12:29N 23°01' E 113°31'671979.8
2015-Jun-27 12:27N 22°04' E 114°08'684066552.1
2015-Jun-27 12:20N 33°25' W 117°42'68368632.0
2015-Jun-27 11:33N 23°04' E 113°30'98549253.2
2015-Jun-27 11:32N 37°48' E 121°53'9854319.9
2015-Jun-27 11:18N 23°04' E 113°29'1 0.9
2015-Jun-27 10:33N 23°04' E 113°30'37211077.7
2015-Jun-27 10:31N 22°32' E 120°12'3513337.2
2015-Jun-27 10:25N 22°10' E 113°53'5867.5
2015-Jun-27 09:33N 23°04' E 113°30'539042.3
2015-Jun-27 09:33N 22°14' E 113°49'531112.6
2015-Jun-27 09:30N 23°06' E 113°37'3726408.6
2015-Jun-27 09:27N 22°34' E 120°19'3792676.3
2015-Jun-27 09:18N 23°04' E 113°29'1 0.9
2015-Jun-27 08:33N 23°04' E 113°30'3115.9
2015-Jun-27 08:32N 23°02' E 113°32'2227.8
2015-Jun-27 08:31N 23°04' E 113°33'3 7.9
2015-Jun-27 08:06N 23°04' E 113°29'1 1.2
2015-Jun-27 07:33N 23°04' E 113°30'6296.0
2015-Jun-27 07:32N 23°02' E 113°24'56552.5
2015-Jun-27 07:32N 23°04' E 113°29'029.8
2015-Jun-27 07:32N 23°04' E 113°29'3765.8
2015-Jun-27 07:31N 23°02' E 113°32'9876591.4
2015-Jun-27 07:22N 39°05' E 117°45'98512270.1
2015-Jun-27 07:17N 23°07' E 113°17'1216.7
2015-Jun-27 06:33N 23°04' E 113°30'518102.3
2015-Jun-27 06:33N 23°02' E 113°24'5165.1
2015-Jun-27 06:32N 23°04' E 113°29'462.7
2015-Jun-27 06:28N 23°01' E 113°32'15142.1
2015-Jun-27 06:21N 23°07' E 113°17'9789.1
2015-Jun-27 06:21N 23°02' E 113°24'5 6.4
2015-Jun-27 05:33N 23°04' E 113°29'42573.3
2015-Jun-27 05:33N 23°01' E 113°32'98813173.8
2015-Jun-27 05:29N 39°05' E 117°46'4563673.0
2015-Jun-27 05:21N 31°55' E 120°54'212.0
2015-Jun-27 05:13N 31°54' E 120°53'83902.6
2015-Jun-27 05:13N 31°60' E 120°48'116734.0
2015-Jun-27 05:13N 32°02' E 120°35'1827.0
2015-Jun-27 04:33N 31°55' E 120°54'42771.3
2015-Jun-27 04:33N 31°51' E 120°54'42532.3
2015-Jun-27 04:33N 31°48' E 120°55'148147.9
2015-Jun-27 04:33N 32°00' E 120°49'449202268.7
2015-Jun-27 04:33N 39°05' E 117°47'985886737.3
2015-Jun-27 04:33N 23°04' E 113°29'66258111.2
2015-Jun-27 04:32N 31°60' E 120°48'66255415.4
2015-Jun-27 04:32N 23°04' E 113°29'663119325.1
2015-Jun-27 04:31N 32°01' E 120°48'1138941.6
2015-Jun-27 04:31N 32°02' E 120°35'6588346.4
2015-Jun-27 04:26N 23°01' E 113°32'14163.5
2015-Jun-27 04:21N 22°47' E 113°36'181735.6
2015-Jun-27 04:21N 23°02' E 113°24'13303.9
2015-Jun-27 04:18N 22°53' E 113°34'223.9
2015-Jun-27 04:13N 22°52' E 113°32'6691018.1
2015-Jun-27 03:33N 31°55' E 120°52'621134.3
2015-Jun-27 03:33N 32°00' E 120°49'663170499.2
2015-Jun-27 03:33N 23°04' E 113°29'985136410.2
2015-Jun-27 03:32N 39°04' E 117°50'1621.6
2015-Jun-27 03:32N 39°04' E 117°51'454148477.8
2015-Jun-27 03:32N 31°55' E 120°54'663183603.4
2015-Jun-27 03:32N 23°01' E 113°32'81291.5
2015-Jun-27 03:32N 22°54' E 113°34'6632387321.9
2015-Jun-27 03:32N 31°48' E 120°57'162539.2
2015-Jun-27 03:31N 32°01' E 120°48'1227.0
2015-Jun-27 03:31N 31°60' E 120°48'4213.0
2015-Jun-27 03:30N 31°60' E 120°43'65921192.0
2015-Jun-27 03:28N 23°04' E 113°29'575.6
2015-Jun-27 03:24N 23°02' E 113°24'661216466.0
2015-Jun-27 03:23N 32°02' E 120°35'41364.3
2015-Jun-27 03:17N 31°39' E 121°14'665913.1
2015-Jun-27 02:33N 23°02' E 113°23'66512089.9
2015-Jun-27 02:30N 31°36' E 121°17'66081887.4
2015-Jun-27 02:29N 23°04' E 113°29'66259545.3
2015-Jun-27 02:29N 31°55' E 120°54'7919.5
2015-Jun-27 02:28N 32°00' E 120°49'2420.0
2015-Jun-27 02:28N 32°01' E 120°47'663238536.4
2015-Jun-27 02:28N 23°04' E 113°29'499.1
2015-Jun-27 02:25N 23°01' E 113°32'9882.7
2015-Jun-27 02:25N 22°52' E 113°32'99712816.4
2015-Jun-27 02:20N 39°05' E 117°46'4672560.6
2015-Jun-27 02:09N 31°46' E 121°04'2135.4
2015-Jun-27 01:33N 32°01' E 120°47'92811.3
2015-Jun-27 01:33N 31°55' E 120°54'6621190887.5
2015-Jun-27 01:33N 23°04' E 113°29'663298360.3
2015-Jun-27 01:33N 32°00' E 120°49'667171641.7
2015-Jun-27 01:33N 23°07' E 113°17'985104320.3
2015-Jun-27 01:32N 39°04' E 117°48'44980884.6
2015-Jun-27 01:32N 31°60' E 120°48'66332267.4
2015-Jun-27 01:31N 23°01' E 113°32'660198088.4
2015-Jun-27 01:31N 31°32' E 121°22'491011.4
2015-Jun-27 01:28N 32°02' E 120°35'33473.7
2015-Jun-27 01:23N 31°43' E 121°08'5 5.9
2015-Jun-27 00:34N 31°40' E 121°12'473141941.5
2015-Jun-27 00:33N 39°04' E 117°51'985154216.6
2015-Jun-27 00:33N 23°04' E 113°29'66062483.8
2015-Jun-27 00:32N 31°28' E 121°27'66595707.9
2015-Jun-27 00:32N 23°07' E 113°17'1298.9
2015-Jun-27 00:25N 23°04' E 113°29'3292.9
2015-Jun-27 00:24N 23°01' E 113°31'6635564.5
2015-Jun-27 00:17N 32°01' E 120°45'101335.2
2015-Jun-27 00:16N 31°55' E 120°54'2738.3
2015-Jun-26 23:34N 31°36' E 121°18'3525183.5
2015-Jun-26 23:33N 32°01' E 120°49'83066.9
2015-Jun-26 23:33N 31°55' E 120°54'6622381924.9
2015-Jun-26 23:33N 23°04' E 113°29'663298378.8
2015-Jun-26 23:33N 32°00' E 120°49'536104.8
2015-Jun-26 23:33N 31°24' E 121°34'49747047.9
2015-Jun-26 23:32N 39°05' E 117°46'44725547.2
2015-Jun-26 23:31N 32°02' E 120°45'81020.2
2015-Jun-26 23:30N 32°02' E 120°35'116633.5
2015-Jun-26 23:30N 31°60' E 120°48'6678667.2
2015-Jun-26 23:26N 23°02' E 113°23'650.2
2015-Jun-26 23:18N 23°04' E 113°29'0 1.1
2015-Jun-26 23:07N 23°04' E 113°29'1 1.0
2015-Jun-26 22:33N 23°04' E 113°29'659158211.7
2015-Jun-26 22:33N 31°32' E 121°22'659124941.5
2015-Jun-26 22:33N 23°04' E 113°28'025.1
2015-Jun-26 22:32N 23°04' E 113°29'379.0
2015-Jun-26 22:29N 23°01' E 113°31'66222256.7
2015-Jun-26 22:27N 31°20' E 121°39'6606678.9
2015-Jun-26 22:21N 23°04' E 113°29'6627422.6
2015-Jun-26 22:16N 32°02' E 120°45'1138103.0
2015-Jun-26 22:16N 31°55' E 120°54'73105.3
2015-Jun-26 22:16N 32°00' E 120°49'663922.0
2015-Jun-26 21:33N 23°04' E 113°29'65913644.1
2015-Jun-26 21:30N 31°28' E 121°28'135127.7
2015-Jun-26 21:30N 31°20' E 121°39'66382345.8
2015-Jun-26 21:29N 22°58' E 113°33'4345.0
2015-Jun-26 21:28N 23°01' E 113°31'349.0
2015-Jun-26 21:24N 23°04' E 113°29'6638089.6
2015-Jun-26 21:19N 32°01' E 120°48'87331.0
2015-Jun-26 21:19N 31°55' E 120°54'116355.0
2015-Jun-26 21:19N 32°02' E 120°45'85750.0
2015-Jun-26 21:19N 32°02' E 120°35'12929.9
2015-Jun-26 21:18N 32°00' E 120°49'1490.7
2015-Jun-26 21:18N 31°60' E 120°48'662885.2
2015-Jun-26 20:33N 23°04' E 113°29'0172.8
2015-Jun-26 20:33N 23°04' E 113°29'65960849.7
2015-Jun-26 20:33N 31°25' E 121°31'8714.7
2015-Jun-26 20:32N 31°20' E 121°39'69570.6
2015-Jun-26 20:25N 32°02' E 120°35'184860.4
2015-Jun-26 20:24N 31°55' E 120°54'71176.6
2015-Jun-26 20:24N 32°00' E 120°49'1665.1
2015-Jun-26 20:24N 31°60' E 120°48'148.3
2015-Jun-26 20:22N 32°01' E 120°48'65913633.8
2015-Jun-26 20:19N 23°05' E 113°35'589.1
2015-Jun-26 20:16N 23°01' E 113°31'66319410.2
2015-Jun-26 20:14N 32°02' E 120°45'0 0.0
2015-Jun-26 19:33N 32°02' E 120°45'663217045.8
2015-Jun-26 19:33N 23°01' E 113°31'311979.8
2015-Jun-26 19:33N 23°04' E 113°29'663795763.6
2015-Jun-26 19:33N 32°00' E 120°49'66324608.9
2015-Jun-26 19:32N 23°04' E 113°29'6621191288.2
2015-Jun-26 19:32N 31°60' E 120°48'591064.8
2015-Jun-26 19:28N 31°20' E 121°39'60172.1
2015-Jun-26 19:07N 32°01' E 120°48'65911405.1
2015-Jun-26 19:04N 23°05' E 113°35'510.3
2015-Jun-26 18:33N 23°04' E 113°29'635175953.1
2015-Jun-26 18:33N 31°09' E 121°11'63587967.5
2015-Jun-26 18:33N 23°04' E 113°29'66019812.2
2015-Jun-26 18:31N 31°20' E 121°39'6564517.3
2015-Jun-26 18:22N 23°05' E 113°35'5372.6
2015-Jun-26 18:21N 23°04' E 113°29'3368.3
2015-Jun-26 18:21N 23°01' E 113°31'66410631.4
2015-Jun-26 18:17N 32°00' E 120°49'4485.2
2015-Jun-26 18:16N 32°02' E 120°45'5982.4
2015-Jun-26 17:33N 31°07' E 121°10'633253284.2
2015-Jun-26 17:33N 23°04' E 113°29'660139845.1
2015-Jun-26 17:33N 31°20' E 121°39'6567745.7
2015-Jun-26 17:28N 23°05' E 113°35'9863449.5
2015-Jun-26 17:11N 37°51' E 121°57'41618284.3
2015-Jun-26 17:09N 30°55' E 122°05'4880.3
2015-Jun-26 16:33N 31°03' E 121°10'63166807.7
2015-Jun-26 16:33N 23°04' E 113°29'66067908.7
2015-Jun-26 16:32N 31°00' E 122°03'4103033.0
2015-Jun-26 16:24N 37°51' E 121°57'39121971.9
2015-Jun-26 16:23N 31°20' E 121°39'65632362.1
2015-Jun-26 16:22N 23°05' E 113°34'656809.2
2015-Jun-26 15:33N 31°08' E 121°54'6602377757.2
2015-Jun-26 15:33N 23°04' E 113°29'1169.3
2015-Jun-26 15:33N 23°04' E 113°29'98867084.1
2015-Jun-26 15:32N 37°50' E 121°57'9887437.9
2015-Jun-26 15:24N 23°04' E 113°29'6624617.5
2015-Jun-26 15:16N 32°02' E 120°45'41137.4
2015-Jun-26 15:15N 32°00' E 120°49'666950.3
2015-Jun-26 14:33N 22°57' E 113°36'6386.1
2015-Jun-26 14:32N 23°01' E 113°31'93074.6
2015-Jun-26 14:32N 23°02' E 113°21'99154080.6
2015-Jun-26 14:31N 37°49' E 121°57'393108910.5
2015-Jun-26 14:31N 31°15' E 121°46'6615902.2
2015-Jun-26 14:24N 23°04' E 113°29'0 0.0
2015-Jun-26 13:33N 23°04' E 113°29'104435.4
2015-Jun-26 13:33N 22°57' E 113°36'990356519.0
2015-Jun-26 13:33N 37°48' E 121°57'386106954.1
2015-Jun-26 13:33N 31°22' E 121°48'674142714.2
2015-Jun-26 13:32N 22°53' E 113°30'6441571.7
2015-Jun-26 13:08N 30°59' E 121°23'6361101.7
2015-Jun-26 12:33N 23°04' E 113°29'667150150.2
2015-Jun-26 12:33N 31°28' E 121°41'379195140.7
2015-Jun-26 12:33N 37°48' E 121°57'3525538.9
2015-Jun-26 12:29N 32°02' E 120°35'356383.5
2015-Jun-26 11:33N 37°51' E 121°57'8658392.6
2015-Jun-26 11:27N 23°52' E 117°52'2463030.3
2015-Jun-26 11:22N 23°04' E 113°29'6575078.9
2015-Jun-26 11:15N 31°59' E 120°40'4110.9
2015-Jun-26 11:12N 32°02' E 120°35'510776.8
2015-Jun-26 10:33N 23°54' E 117°46'911156105.3
2015-Jun-26 10:32N 39°04' E 117°47'51697805.8
2015-Jun-26 10:32N 30°59' E 121°24'6365032.0
2015-Jun-26 10:25N 23°04' E 113°29'636722.9
2015-Jun-26 09:32N 30°59' E 121°24'5147748.5
2015-Jun-26 09:28N 39°04' E 117°51'985253366.7
2015-Jun-26 09:28N 23°04' E 113°29'636651.6
2015-Jun-26 08:29N 30°59' E 121°24'6625425.1
2015-Jun-26 08:22N 22°17' E 113°49'10284920.7
2015-Jun-26 08:09N 39°05' E 117°46'98511515.1
2015-Jun-26 08:04N 23°04' E 113°29'55106.0
2015-Jun-26 07:33N 22°12' E 113°48'555104.5
2015-Jun-26 07:32N 23°04' E 113°29'636152637.4
2015-Jun-26 07:32N 30°59' E 121°24'75985.5
2015-Jun-26 07:27N 32°02' E 120°35'443489.4
2015-Jun-26 06:33N 39°04' E 117°49'51527278.9
2015-Jun-26 06:32N 30°59' E 121°24'66812395.2
2015-Jun-26 06:28N 22°10' E 113°48'57918.8
2015-Jun-26 06:25N 23°04' E 113°29'6571803.9
2015-Jun-26 06:03N 31°59' E 120°40'42279.8
2015-Jun-26 06:03N 32°02' E 120°35'443872.4
2015-Jun-26 05:32N 39°04' E 117°51'51550088.1
2015-Jun-26 05:32N 30°59' E 121°24'252051.8
2015-Jun-26 05:31N 31°24' E 121°31'69116920.9
2015-Jun-26 05:29N 22°10' E 113°48'574473.8
2015-Jun-26 05:28N 23°04' E 113°29'664726.1
2015-Jun-26 04:33N 31°30' E 121°32'508203047.4
2015-Jun-26 04:33N 39°50' E 119°47'51924906.0
2015-Jun-26 04:32N 31°19' E 121°34'6881239168.7
2015-Jun-26 04:31N 22°10' E 113°48'66814843.6
2015-Jun-26 04:29N 30°59' E 121°24'63636928.4
2015-Jun-26 04:28N 23°04' E 113°29'1027.8
2015-Jun-26 04:07N 22°57' E 113°36'6691191.0
2015-Jun-26 03:33N 31°30' E 121°38'667218243.6
2015-Jun-26 03:33N 23°04' E 113°29'651156185.8
2015-Jun-26 03:32N 31°15' E 121°30'161242.7
2015-Jun-26 03:32N 30°59' E 121°24'66812524.2
2015-Jun-26 03:28N 22°10' E 113°48'48260.9
2015-Jun-26 03:17N 22°57' E 113°36'6609738.2
2015-Jun-26 03:13N 32°02' E 120°35'113488.2
2015-Jun-26 03:13N 32°01' E 120°48'71103.6
2015-Jun-26 03:13N 31°59' E 120°40'788.8
2015-Jun-26 03:08N 32°01' E 120°32'6911194.0
2015-Jun-26 02:33N 22°11' E 113°47'674110308.5
2015-Jun-26 02:33N 31°04' E 121°28'281080.6
2015-Jun-26 02:31N 31°28' E 121°44'67131391.7
2015-Jun-26 02:30N 22°57' E 113°36'63827015.5
2015-Jun-26 02:29N 30°59' E 121°23'6364073.5
2015-Jun-26 02:19N 23°04' E 113°29'6553041.0
2015-Jun-26 02:06N 32°01' E 120°32'3120.8
2015-Jun-26 02:05N 32°02' E 120°35'11892.4
2015-Jun-26 02:04N 32°01' E 120°48'71153.5
2015-Jun-26 02:04N 31°59' E 120°40'6601287.1
2015-Jun-26 01:33N 22°57' E 113°36'66072040.7
2015-Jun-26 01:32N 31°59' E 120°40'47979.2
2015-Jun-26 01:32N 32°02' E 120°35'65735836.3
2015-Jun-26 01:31N 23°04' E 113°29'66313183.2
2015-Jun-26 01:28N 32°01' E 120°48'14543.3
2015-Jun-26 01:27N 32°01' E 120°32'719131.6
2015-Jun-26 01:26N 31°08' E 121°27'1085.7
2015-Jun-26 01:20N 30°59' E 121°23'6624164.2
2015-Jun-26 01:10N 22°18' E 113°48'6871122.5
2015-Jun-26 00:33N 32°02' E 120°35'66060926.4
2015-Jun-26 00:33N 22°57' E 113°36'63837036.7
2015-Jun-26 00:32N 30°59' E 121°23'6919032.7
2015-Jun-26 00:32N 32°01' E 120°48'41135242.8
2015-Jun-26 00:31N 38°50' E 121°40'4136150.8
2015-Jun-26 00:27N 31°59' E 120°40'65710856.8
2015-Jun-26 00:23N 23°04' E 113°29'650781.0
2015-Jun-25 23:33N 31°15' E 121°29'663208.8
2015-Jun-25 23:32N 32°02' E 120°35'7514943.9
2015-Jun-25 23:32N 30°59' E 121°23'698838.5
2015-Jun-25 23:31N 32°01' E 120°48'7403.0
2015-Jun-25 23:30N 31°59' E 120°40'66011057.5
2015-Jun-25 23:27N 22°57' E 113°36'10174.5
2015-Jun-25 23:23N 23°04' E 113°29'655784.2
2015-Jun-25 22:33N 31°17' E 121°34'487146029.1
2015-Jun-25 22:33N 23°54' E 117°44'50919687.2
2015-Jun-25 22:31N 32°01' E 120°32'311111.4
2015-Jun-25 22:31N 32°02' E 120°35'115481.7
2015-Jun-25 22:31N 32°01' E 120°48'66621399.6
2015-Jun-25 22:29N 22°57' E 113°36'63857413.2
2015-Jun-25 22:29N 30°59' E 121°24'3235.1
2015-Jun-25 21:33N 31°26' E 121°44'1221122.0
2015-Jun-25 21:33N 31°21' E 121°32'642393.3
2015-Jun-25 21:32N 32°02' E 120°35'111037.0
2015-Jun-25 21:31N 32°01' E 120°48'70587563.4
2015-Jun-25 21:31N 22°11' E 113°34'54716.5
2015-Jun-25 21:26N 23°04' E 113°29'1095.1
2015-Jun-25 21:20N 22°57' E 113°36'4761.0
2015-Jun-25 20:33N 22°09' E 113°38'703101196.9
2015-Jun-25 20:33N 31°19' E 121°48'153253.6
2015-Jun-25 20:33N 31°23' E 121°31'61218494.1
2015-Jun-25 20:33N 32°02' E 120°35'11143.2
2015-Jun-25 20:28N 32°01' E 120°48'6667285.1
2015-Jun-25 20:23N 22°57' E 113°36'106122477.4
2015-Jun-25 20:20N 39°50' E 119°47'105611081.4
2015-Jun-25 20:14N 23°04' E 113°29'661973.8
2015-Jun-25 19:33N 31°15' E 121°47'699838610.8
2015-Jun-25 19:33N 22°06' E 113°43'700629803.4
2015-Jun-25 19:33N 32°02' E 120°35'575024.7
2015-Jun-25 19:33N 31°27' E 121°28'66133992.5
2015-Jun-25 19:31N 22°57' E 113°36'66612228.4
2015-Jun-25 19:28N 32°01' E 120°48'4347.1
2015-Jun-25 18:33N 31°30' E 121°23'52186295.1
2015-Jun-25 18:33N 32°02' E 120°35'814285.9
2015-Jun-25 18:32N 31°11' E 121°49'726206.7
2015-Jun-25 18:31N 32°01' E 120°48'70581920.1
2015-Jun-25 18:31N 22°03' E 113°48'698733.1
2015-Jun-25 17:33N 31°34' E 121°19'698251446.1
2015-Jun-25 17:33N 22°03' E 113°48'69729181.7
2015-Jun-25 17:32N 31°11' E 121°49'6602230.6
2015-Jun-25 17:14N 23°04' E 113°29'659971.8
2015-Jun-25 16:33N 31°38' E 121°14'700503782.2
2015-Jun-25 16:33N 22°03' E 113°48'64529.5
2015-Jun-25 16:26N 23°04' E 113°29'66015629.2
2015-Jun-25 16:24N 31°11' E 121°49'81852.2
2015-Jun-25 16:18N 32°02' E 120°35'11368.9
2015-Jun-25 16:16N 32°01' E 120°48'148180.5
2015-Jun-25 16:16N 32°01' E 120°32'0 0.0
2015-Jun-25 15:30N 32°01' E 120°32'31234.0
2015-Jun-25 15:30N 32°02' E 120°35'8114570.7
2015-Jun-25 15:30N 31°11' E 121°49'473842.0
2015-Jun-25 15:29N 31°42' E 121°08'26416.2
2015-Jun-25 15:25N 32°01' E 120°48'66319402.3
2015-Jun-25 15:23N 23°04' E 113°29'641789.1
2015-Jun-25 15:21N 22°03' E 113°48'0 0.0
2015-Jun-25 14:33N 22°03' E 113°48'6979193.7
2015-Jun-25 14:29N 31°11' E 121°49'2 2.1
2015-Jun-25 13:33N 31°11' E 121°52'69871790.4
2015-Jun-25 13:33N 22°03' E 113°48'64177.5
2015-Jun-25 13:11N 23°04' E 113°29'1116.9
2015-Jun-25 12:33N 23°06' E 113°18'66734311.9
2015-Jun-25 12:32N 31°07' E 121°57'6622189.9
2015-Jun-25 12:14N 23°04' E 113°29'661895.2
2015-Jun-25 11:30N 31°02' E 122°02'6615918.8
2015-Jun-25 11:23N 23°04' E 113°29'1011.5
2015-Jun-25 10:32N 22°55' E 113°28'1402.5
2015-Jun-25 10:32N 22°55' E 113°27'6666462.7
2015-Jun-25 10:25N 32°02' E 120°35'6572766.4
2015-Jun-25 10:11N 23°04' E 113°29'5583.9
2015-Jun-25 09:32N 22°10' E 113°37'48395.7
2015-Jun-25 09:25N 22°57' E 113°30'7276.8
2015-Jun-25 09:23N 23°04' E 113°29'626.5
2015-Jun-25 09:09N 23°02' E 113°23'6627311.1
2015-Jun-25 09:04N 32°02' E 120°35'6591293.3
2015-Jun-25 08:33N 23°04' E 113°26'4162.4
2015-Jun-25 08:32N 23°03' E 113°30'210.9
2015-Jun-25 08:23N 23°04' E 113°29'1 0.8
2015-Jun-25 07:28N 23°04' E 113°30'0 0.4
2015-Jun-25 07:21N 23°04' E 113°30'0 0.0
2015-Jun-25 06:33N 23°04' E 113°30'1 4.0
2015-Jun-25 06:23N 23°04' E 113°29'1 0.8
2015-Jun-25 05:28N 23°04' E 113°30'0 0.1
2015-Jun-25 05:13N 23°04' E 113°30'11114.6
2015-Jun-25 05:07N 22°53' E 113°30'1118.3
2015-Jun-25 04:31N 23°04' E 113°30'11208.4
2015-Jun-25 04:28N 22°53' E 113°31'66512740.8
2015-Jun-25 04:25N 32°02' E 120°35'657472908.3
2015-Jun-25 04:25N 23°04' E 113°30'660182859.6
2015-Jun-25 04:25N 31°54' E 120°54'33144.5
2015-Jun-25 04:25N 31°51' E 120°53'1425195.3
2015-Jun-25 04:25N 32°00' E 120°40'6677322.1
2015-Jun-25 04:19N 22°53' E 113°30'2421958.6
2015-Jun-25 04:12N 23°54' E 117°45'5134079.9
2015-Jun-25 04:04N 32°01' E 120°48'6691276.7
2015-Jun-25 03:33N 22°54' E 113°35'11156.4
2015-Jun-25 03:28N 23°04' E 113°30'1170.7
2015-Jun-25 03:19N 22°53' E 113°30'11122.4
2015-Jun-25 03:14N 23°04' E 113°30'115.7
2015-Jun-25 03:11N 23°04' E 113°29'6621015.7
2015-Jun-25 02:32N 32°00' E 120°47'105335.8
2015-Jun-25 02:32N 32°02' E 120°35'131453.3
2015-Jun-25 02:31N 31°59' E 120°50'6631193023.1
2015-Jun-25 02:31N 23°04' E 113°30'658394831.7
2015-Jun-25 02:31N 31°47' E 120°60'178959.1
2015-Jun-25 02:31N 32°01' E 120°48'6635667.9
2015-Jun-25 02:24N 23°04' E 113°30'1138.3
2015-Jun-25 02:07N 22°53' E 113°30'6671186.7
2015-Jun-25 01:33N 31°60' E 120°40'448806985.3
2015-Jun-25 01:33N 39°05' E 117°45'485873160.9
2015-Jun-25 01:33N 31°32' E 121°19'65843070.1
2015-Jun-25 01:32N 23°04' E 113°28'1 4.2
2015-Jun-25 01:25N 23°04' E 113°29'1160.1
2015-Jun-25 01:14N 22°57' E 113°37'1014.1
2015-Jun-25 00:31N 23°04' E 113°30'1 4.4
2015-Jun-25 00:21N 23°04' E 113°29'1 0.8
2015-Jun-24 23:28N 23°04' E 113°30'66022841.8
2015-Jun-24 23:27N 31°39' E 121°14'660792167.9
2015-Jun-24 23:27N 23°04' E 113°29'661741.8
2015-Jun-24 22:33N 31°38' E 121°18'66121838.2
2015-Jun-24 22:31N 23°04' E 113°29'663265167.5
2015-Jun-24 22:31N 32°01' E 120°48'66335613.8
2015-Jun-24 22:30N 23°04' E 113°29'661699.6
2015-Jun-24 21:33N 31°38' E 121°18'661125259.0
2015-Jun-24 21:33N 23°04' E 113°29'0 3.7
2015-Jun-24 21:31N 23°04' E 113°29'2447507.9
2015-Jun-24 21:29N 23°53' E 117°50'5137302.0
2015-Jun-24 21:25N 32°01' E 120°48'663762.9
2015-Jun-24 20:33N 23°04' E 113°29'66128331.6
2015-Jun-24 20:32N 31°38' E 121°18'661125275.5
2015-Jun-24 20:31N 23°04' E 113°29'66312627.9
2015-Jun-24 20:28N 32°01' E 120°48'3538.1
2015-Jun-24 19:33N 31°38' E 121°18'6617703.6
2015-Jun-24 19:28N 23°04' E 113°29'0 1.0
2015-Jun-24 19:21N 23°04' E 113°29'66321305.9
2015-Jun-24 19:19N 32°01' E 120°48'6694417.0
2015-Jun-24 19:10N 22°54' E 113°35'6661087.0
2015-Jun-24 18:33N 31°38' E 121°18'6618208.3
2015-Jun-24 18:28N 23°04' E 113°29'0 1.1
2015-Jun-24 18:21N 23°04' E 113°29'12234.8
2015-Jun-24 18:18N 22°52' E 113°32'669711.6
2015-Jun-24 17:21N 31°38' E 121°18'66911525.0
2015-Jun-24 17:18N 22°52' E 113°32'1214564.8
2015-Jun-24 17:18N 23°04' E 113°29'0 4.6
2015-Jun-24 17:16N 23°04' E 113°29'661925.1
2015-Jun-24 16:33N 31°38' E 121°18'6617753.7
2015-Jun-24 16:28N 23°04' E 113°29'0 1.1
2015-Jun-24 16:21N 23°04' E 113°29'661836.2
2015-Jun-24 15:34N 31°38' E 121°18'66176767.3
2015-Jun-24 15:33N 23°04' E 113°29'0 1.7
2015-Jun-24 15:28N 23°04' E 113°29'661697.2
2015-Jun-24 14:31N 31°38' E 121°18'661396728.7
2015-Jun-24 14:31N 23°04' E 113°29'0 5.8
2015-Jun-24 14:30N 23°04' E 113°29'0 0.0
2015-Jun-24 13:33N 23°04' E 113°29'0 4.4
2015-Jun-24 13:31N 23°04' E 113°29'0 0.1
2015-Jun-24 12:33N 23°04' E 113°29'659103144.2
2015-Jun-24 12:33N 31°33' E 121°20'13600.7
2015-Jun-24 12:31N 31°22' E 121°28'655674.8
2015-Jun-24 11:33N 23°04' E 113°29'6315550.7
2015-Jun-24 11:26N 30°57' E 121°17'33263.6
2015-Jun-24 11:19N 31°29' E 121°27'32661.5
2015-Jun-24 11:16N 31°08' E 121°54'6 8.4
2015-Jun-24 10:32N 31°12' E 121°49'201076.3
2015-Jun-24 10:31N 31°25' E 121°31'6593490.1
2015-Jun-24 10:19N 23°04' E 113°29'0 0.4
2015-Jun-24 10:06N 23°04' E 113°29'6621217.0
2015-Jun-24 09:33N 31°18' E 121°45'131328.1
2015-Jun-24 09:33N 31°22' E 121°30'37627.5
2015-Jun-24 09:29N 30°59' E 122°03'6604797.1
2015-Jun-24 09:21N 23°04' E 113°29'0 1.4
2015-Jun-24 09:16N 23°04' E 113°29'3791866.9
2015-Jun-24 09:04N 22°34' E 120°18'36318430.8
2015-Jun-24 09:03N 22°18' E 113°45'6811374.8
2015-Jun-24 08:33N 31°16' E 121°34'2410719.1
2015-Jun-24 08:33N 31°05' E 121°58'203301.4
2015-Jun-24 08:33N 31°23' E 121°47'532957317.2
2015-Jun-24 08:33N 22°38' E 120°15'37516282.1
2015-Jun-24 08:31N 23°04' E 113°29'0 0.4
2015-Jun-24 08:18N 23°04' E 113°29'51219.1
2015-Jun-24 08:04N 22°17' E 113°49'4 8.5
2015-Jun-24 07:33N 22°13' E 113°48'6792442788.6
2015-Jun-24 07:33N 31°12' E 121°30'185107.8
2015-Jun-24 07:33N 31°10' E 121°51'761065.1
2015-Jun-24 07:29N 32°00' E 120°43'6601671.3
2015-Jun-24 07:05N 23°04' E 113°29'6611253.3
2015-Jun-24 06:33N 31°17' E 121°45'66172110.7
2015-Jun-24 06:33N 23°04' E 113°29'574292.9
2015-Jun-24 06:32N 22°10' E 113°48'67544995.3
2015-Jun-24 06:31N 31°05' E 121°28'18177.2
2015-Jun-24 06:25N 31°23' E 121°31'65811606.5
2015-Jun-24 06:22N 23°04' E 113°29'6552857.6
2015-Jun-24 06:08N 32°01' E 120°32'510887.9
2015-Jun-24 05:33N 23°53' E 117°48'498358775.9
2015-Jun-24 05:33N 31°24' E 121°47'699167842.4
2015-Jun-24 05:33N 22°10' E 113°48'5717137.5
2015-Jun-24 05:33N 23°04' E 113°29'0 0.7
2015-Jun-24 05:22N 23°04' E 113°29'6574914.1
2015-Jun-24 05:14N 31°47' E 120°56'214431.2
2015-Jun-24 05:13N 32°01' E 120°37'5988.5
2015-Jun-24 04:33N 31°30' E 121°36'66699876.6
2015-Jun-24 04:33N 23°04' E 113°29'0 3.3
2015-Jun-24 04:31N 23°04' E 113°29'6598096.9
2015-Jun-24 04:26N 31°52' E 120°53'66119840.9
2015-Jun-24 04:24N 22°59' E 113°32'521169.9
2015-Jun-24 04:21N 22°10' E 113°48'6845778.9
2015-Jun-24 04:14N 31°15' E 121°31'980.1
2015-Jun-24 04:08N 31°23' E 121°31'6581147.2
2015-Jun-24 03:33N 23°04' E 113°29'636327270.3
2015-Jun-24 03:33N 31°08' E 121°13'636208230.1
2015-Jun-24 03:33N 23°04' E 113°29'65616181.6
2015-Jun-24 03:31N 31°21' E 121°31'68912464.0
2015-Jun-24 03:27N 22°10' E 113°48'57400.9
2015-Jun-24 03:19N 23°04' E 113°29'5775.7
2015-Jun-24 02:33N 22°10' E 113°48'5729240.8
2015-Jun-24 02:33N 23°04' E 113°29'635134435.0
2015-Jun-24 02:33N 31°09' E 121°10'63918697.9
2015-Jun-24 02:31N 23°02' E 113°24'527.6
2015-Jun-24 02:21N 23°04' E 113°29'637805.5
2015-Jun-24 01:33N 31°12' E 121°09'637163834.0
2015-Jun-24 01:33N 23°04' E 113°29'50155.4
2015-Jun-24 01:14N 22°17' E 113°49'667990.0
2015-Jun-24 00:33N 31°15' E 121°09'639287726.0
2015-Jun-24 00:33N 23°04' E 113°29'65934374.7
2015-Jun-24 00:32N 31°52' E 120°54'553497318.7
2015-Jun-24 00:32N 22°40' E 120°12'37210619.0
2015-Jun-24 00:30N 23°04' E 113°29'640636.2
2015-Jun-23 23:30N 31°16' E 121°09'64212559.2
2015-Jun-23 23:26N 23°01' E 113°31'4104.4
2015-Jun-23 23:24N 23°04' E 113°29'6588937.0
2015-Jun-23 23:20N 31°47' E 120°59'271607.1
2015-Jun-23 23:19N 32°01' E 120°31'660873.5
2015-Jun-23 22:33N 23°02' E 113°22'64666415.8
2015-Jun-23 22:33N 31°17' E 121°09'309737.6
2015-Jun-23 22:33N 31°46' E 121°04'32946.3
2015-Jun-23 22:31N 32°01' E 120°31'6556058.0
2015-Jun-23 22:24N 23°04' E 113°29'1 0.6
2015-Jun-23 21:33N 23°04' E 113°29'660139726.9
2015-Jun-23 21:33N 31°42' E 121°10'2512819.1
2015-Jun-23 21:33N 31°17' E 121°07'6404336.5
2015-Jun-23 21:24N 23°04' E 113°29'6556911.5
2015-Jun-23 21:19N 32°01' E 120°31'4459.2
2015-Jun-23 20:34N 31°38' E 121°16'6602375818.8
2015-Jun-23 20:34N 23°04' E 113°29'637458708.3
2015-Jun-23 20:33N 31°16' E 121°04'6371803.1
2015-Jun-23 20:12N 23°04' E 113°29'67086201.6
2015-Jun-23 20:12N 31°28' E 121°47'2335.6
2015-Jun-23 19:33N 31°33' E 121°21'659131822.8
2015-Jun-23 19:33N 23°04' E 113°29'66951220.5
2015-Jun-23 19:32N 31°25' E 121°48'42847.2
2015-Jun-23 19:29N 31°18' E 120°60'6361595.0
2015-Jun-23 19:06N 23°04' E 113°29'659339055.7
2015-Jun-23 19:05N 31°31' E 121°23'24965.4
2015-Jun-23 19:04N 31°19' E 120°59'424270.2
2015-Jun-23 19:03N 31°21' E 121°48'66613322.4
2015-Jun-23 19:00N 23°04' E 113°29'0 0.0
2015-Jun-22 19:33N 23°04' E 113°29'66226769.6
2015-Jun-22 19:32N 32°01' E 120°45'6624681.0
2015-Jun-22 19:24N 23°04' E 113°29'0 0.4
2015-Jun-22 18:33N 23°04' E 113°29'018.9
2015-Jun-22 18:33N 23°04' E 113°29'66232198.2
2015-Jun-22 18:31N 32°01' E 120°45'0 0.0
2015-Jun-22 17:33N 32°01' E 120°45'662125396.2
2015-Jun-22 17:33N 23°04' E 113°29'662665.5
2015-Jun-22 16:33N 32°01' E 120°45'662119190.7
2015-Jun-22 16:33N 23°05' E 113°28'183.0
2015-Jun-22 16:32N 23°04' E 113°29'0 2.1
2015-Jun-22 16:24N 23°04' E 113°29'0 0.4
2015-Jun-22 15:33N 23°04' E 113°29'060.9
2015-Jun-22 15:33N 23°04' E 113°29'66210830.1
2015-Jun-22 15:29N 32°01' E 120°45'662712.9
2015-Jun-22 14:33N 23°04' E 113°29'028.9
2015-Jun-22 14:33N 23°04' E 113°29'66227705.0
2015-Jun-22 14:31N 32°01' E 120°45'662689.2
2015-Jun-22 13:33N 23°04' E 113°29'019.2
2015-Jun-22 13:33N 23°04' E 113°29'92407.6
2015-Jun-22 13:32N 23°03' E 113°19'66833406.2
2015-Jun-22 13:31N 32°01' E 120°46'666690.3
2015-Jun-22 12:33N 23°02' E 113°24'5416.3
2015-Jun-22 12:32N 23°04' E 113°29'6639320.3
2015-Jun-22 12:28N 31°59' E 120°51'6638461.6
2015-Jun-22 12:24N 23°04' E 113°29'1 0.7
2015-Jun-22 11:33N 23°04' E 113°29'036.7
2015-Jun-22 11:33N 23°04' E 113°29'6611189914.2
2015-Jun-22 11:33N 31°55' E 120°53'6613211.9
2015-Jun-22 11:21N 23°04' E 113°29'6593806.6
2015-Jun-22 11:10N 31°51' E 120°54'12182.7
2015-Jun-22 11:06N 32°01' E 120°47'6631202.2
2015-Jun-22 10:33N 23°04' E 113°29'024.4
2015-Jun-22 10:33N 23°04' E 113°29'52445.3
2015-Jun-22 10:32N 23°05' E 113°34'6597128.7
2015-Jun-22 10:27N 32°01' E 120°48'663742.4
2015-Jun-22 09:33N 23°04' E 113°29'024.6
2015-Jun-22 09:33N 23°04' E 113°29'1137.4
2015-Jun-22 09:16N 22°56' E 113°36'647918.0
2015-Jun-22 08:33N 31°08' E 121°28'64564481.2
2015-Jun-22 08:33N 23°04' E 113°29'023.5
2015-Jun-22 08:32N 23°04' E 113°29'0 0.0
2015-Jun-22 07:33N 23°04' E 113°29'66379555.1
2015-Jun-22 07:33N 32°01' E 120°48'6619756.3
2015-Jun-22 07:33N 31°04' E 121°28'39784.6
2015-Jun-22 07:30N 31°41' E 121°11'6602183.8
2015-Jun-22 07:12N 23°04' E 113°29'6621046.1
2015-Jun-22 06:34N 31°57' E 120°52'66221672.4
2015-Jun-22 06:32N 23°04' E 113°29'660237630.6
2015-Jun-22 06:32N 31°37' E 121°16'6604940.6
2015-Jun-22 06:24N 23°04' E 113°29'98522172.4
2015-Jun-22 06:21N 39°05' E 117°45'48616994.1
2015-Jun-22 06:19N 31°32' E 121°22'483635.8
2015-Jun-22 05:34N 39°04' E 117°51'985443391.4
2015-Jun-22 05:33N 23°04' E 113°29'659215798.9
2015-Jun-22 05:33N 31°34' E 121°20'66811971.6
2015-Jun-22 05:30N 22°55' E 113°26'8260.0
2015-Jun-22 05:28N 23°02' E 113°24'1458187396.6
2015-Jun-22 05:28N 00°02' E 121°24'145822237.0
2015-Jun-22 05:24N 23°04' E 113°29'660781.8
2015-Jun-22 04:33N 31°31' E 121°24'485194032.3
2015-Jun-22 04:33N 39°04' E 117°50'985118236.3
2015-Jun-22 04:32N 23°04' E 113°29'036.0
2015-Jun-22 04:32N 23°04' E 113°29'98614971.1
2015-Jun-22 04:28N 39°04' E 117°51'9961195053.0
2015-Jun-22 04:28N 22°53' E 113°30'116326.1
2015-Jun-22 04:28N 23°02' E 113°24'5 5.2
2015-Jun-22 03:34N 23°04' E 113°29'985253364.7
2015-Jun-22 03:33N 39°05' E 117°46'985186655.9
2015-Jun-22 03:33N 23°05' E 113°28'98528148.2
2015-Jun-22 03:31N 39°04' E 117°51'2112.9
2015-Jun-22 03:30N 39°04' E 117°48'98530036.5
2015-Jun-22 03:28N 23°04' E 113°32'65843862.2
2015-Jun-22 03:27N 31°29' E 121°27'6602592.8
2015-Jun-22 03:12N 23°04' E 113°29'0 0.4
2015-Jun-22 02:34N 23°04' E 113°29'12808.5
2015-Jun-22 02:33N 23°04' E 113°28'165.3
2015-Jun-22 02:33N 23°04' E 113°29'660113064.9
2015-Jun-22 02:32N 31°26' E 121°30'66031267.1
2015-Jun-22 02:31N 23°02' E 113°30'2 2.2
2015-Jun-22 01:33N 23°04' E 113°29'985186698.9
2015-Jun-22 01:33N 39°05' E 117°45'98988979.0
2015-Jun-22 01:33N 23°02' E 113°23'7219.5
2015-Jun-22 01:31N 23°02' E 113°30'849.7
2015-Jun-22 01:21N 22°57' E 113°36'9911241.0
2015-Jun-22 00:34N 39°04' E 117°51'985177353.5
2015-Jun-22 00:33N 23°04' E 113°29'101091.1
2015-Jun-22 00:33N 22°57' E 113°36'961.8
2015-Jun-22 00:24N 23°04' E 113°29'10108.6
2015-Jun-22 00:18N 22°55' E 113°26'1013.2
2015-Jun-21 23:33N 23°04' E 113°29'060.1
2015-Jun-21 23:33N 23°04' E 113°29'933878.1
2015-Jun-21 23:32N 22°57' E 113°36'6792.4
2015-Jun-21 23:32N 22°54' E 113°29'9954653.3
2015-Jun-21 23:19N 39°04' E 117°48'9851294.5
2015-Jun-21 22:34N 23°04' E 113°29'0 1.6
2015-Jun-21 22:24N 23°04' E 113°29'0 0.4
2015-Jun-21 21:33N 23°04' E 113°29'0 0.0
2015-Jun-21 20:33N 23°04' E 113°29'056.2
2015-Jun-21 20:32N 23°04' E 113°29'0 0.3
2015-Jun-21 19:33N 23°04' E 113°29'028.1
2015-Jun-21 19:32N 23°04' E 113°29'683039088.2
2015-Jun-21 19:22N 33°15' W 117°56'68308402.9
2015-Jun-21 18:33N 23°04' E 113°29'6832161804.5
2015-Jun-21 18:31N 33°12' W 117°55'683256799.0
2015-Jun-21 18:23N 23°04' E 113°29'0 0.3
2015-Jun-21 17:33N 23°04' E 113°29'6833614931.5
2015-Jun-21 17:33N 33°10' W 117°55'68324919385.2
2015-Jun-21 17:32N 23°04' E 113°29'310.0
2015-Jun-21 17:15N 23°02' E 113°32'657956.5
2015-Jun-21 16:34N 31°23' E 121°30'657147844.5
2015-Jun-21 16:33N 23°04' E 113°29'64222223.5
2015-Jun-21 16:32N 31°04' E 121°28'61281050563.7
2015-Jun-21 16:31N 33°13' W 117°56'683053453.4
2015-Jun-21 16:23N 23°04' E 113°29'6603164.2
2015-Jun-21 16:11N 30°58' E 122°05'61019666.6
2015-Jun-21 15:33N 33°13' W 117°56'68301294130.3
2015-Jun-21 15:33N 23°04' E 113°29'060.1
2015-Jun-21 15:32N 23°04' E 113°29'66215565.3
2015-Jun-21 15:30N 31°02' E 122°03'66612812.3
2015-Jun-21 15:27N 22°54' E 113°35'898.0
2015-Jun-21 15:22N 22°55' E 113°27'1011.8
2015-Jun-21 14:32N 23°04' E 113°29'66169963.9
2015-Jun-21 14:32N 31°07' E 121°56'6611943.5
2015-Jun-21 14:11N 23°04' E 113°29'6611040.3
2015-Jun-21 13:33N 31°14' E 121°47'66141720.8
2015-Jun-21 13:32N 23°04' E 113°29'0 2.0
2015-Jun-21 13:23N 23°04' E 113°29'660786.2
2015-Jun-21 12:33N 31°22' E 121°37'660132082.6
2015-Jun-21 12:33N 23°04' E 113°29'062.8
2015-Jun-21 12:33N 23°04' E 113°29'3253.1
2015-Jun-21 12:32N 23°02' E 113°31'312.5
2015-Jun-21 12:18N 23°04' E 113°29'3 4.6
2015-Jun-21 11:34N 23°01' E 113°31'660339632.5
2015-Jun-21 11:33N 31°28' E 121°26'659474336.1
2015-Jun-21 11:33N 23°04' E 113°29'121893.9
2015-Jun-21 11:33N 22°54' E 113°35'11213.9
2015-Jun-21 11:30N 23°04' E 113°29'0 0.4
2015-Jun-21 11:10N 23°04' E 113°29'6591087.1
2015-Jun-21 10:33N 31°36' E 121°17'662119086.4
2015-Jun-21 10:33N 23°04' E 113°25'459.7
2015-Jun-21 10:29N 23°04' E 113°30'0 5.7
2015-Jun-21 10:25N 23°04' E 113°29'6267225.5
2015-Jun-21 10:19N 31°02' E 121°04'50926167.7
2015-Jun-21 10:18N 39°04' E 117°47'512682.2
2015-Jun-21 09:33N 31°05' E 121°28'511114957.5
2015-Jun-21 09:33N 39°04' E 117°50'5855.0
2015-Jun-21 09:33N 39°05' E 117°44'98515559.3
2015-Jun-21 09:29N 23°04' E 113°30'65917841.0
2015-Jun-21 09:27N 31°43' E 121°07'65920464.6
2015-Jun-21 09:25N 23°04' E 113°29'990.0
2015-Jun-21 09:18N 22°57' E 113°36'679.4
2015-Jun-21 09:14N 23°01' E 113°31'6 9.3
2015-Jun-21 08:34N 22°57' E 113°36'991111539.6
2015-Jun-21 08:33N 39°04' E 117°50'2545262.8
2015-Jun-21 08:30N 36°55' E 122°29'35447185.4
2015-Jun-21 08:30N 31°05' E 121°28'64248187.4
2015-Jun-21 08:29N 23°04' E 113°30'3152.9
2015-Jun-21 08:28N 23°01' E 113°31'6292786.5
2015-Jun-21 08:14N 30°57' E 121°12'62829735.4
2015-Jun-21 08:13N 23°04' E 113°29'6557054.9
2015-Jun-21 08:07N 31°21' E 121°27'6561164.1
2015-Jun-21 07:33N 23°01' E 113°31'345.1
2015-Jun-21 07:29N 23°04' E 113°30'0 6.4
2015-Jun-21 07:25N 23°04' E 113°29'63022024.5
2015-Jun-21 07:23N 30°58' E 121°16'51410284.3
2015-Jun-21 07:20N 39°04' E 117°50'4955518.7
2015-Jun-21 07:15N 31°21' E 121°27'657951.3
2015-Jun-21 06:33N 22°57' E 113°36'9128.7
2015-Jun-21 06:29N 23°04' E 113°30'369.2
2015-Jun-21 06:26N 23°01' E 113°31'65747289.7
2015-Jun-21 06:25N 31°22' E 121°28'4963477.0
2015-Jun-21 06:17N 39°04' E 117°48'98615292.4
2015-Jun-21 06:13N 23°04' E 113°29'6581004.1
2015-Jun-21 05:33N 31°24' E 121°31'495197841.4
2015-Jun-21 05:33N 39°04' E 117°49'98534441.9
2015-Jun-21 05:31N 23°04' E 113°30'3573.2
2015-Jun-21 05:31N 23°01' E 113°31'633284943.2
2015-Jun-21 05:31N 30°58' E 121°18'614548510.2
2015-Jun-21 05:23N 33°28' W 117°42'6033452506.3
2015-Jun-21 05:23N 39°04' E 117°47'98564492.0
2015-Jun-21 05:22N 23°04' E 113°29'9865433.9
2015-Jun-21 05:11N 39°04' E 117°49'60329424.7
2015-Jun-21 04:32N 33°28' W 117°42'6031128462.2
2015-Jun-21 04:30N 39°04' E 117°51'491196233.9
2015-Jun-21 04:29N 31°27' E 121°28'301214.5
2015-Jun-21 04:28N 30°58' E 121°18'63213068.5
2015-Jun-21 04:25N 23°04' E 113°29'051.8
2015-Jun-21 04:25N 23°04' E 113°29'98690996.2
2015-Jun-21 04:24N 39°04' E 117°50'0 4.5
2015-Jun-21 04:20N 39°04' E 117°50'9927270.5
2015-Jun-21 04:12N 22°57' E 113°36'63753.1
2015-Jun-21 04:12N 23°01' E 113°31'9888983.9
2015-Jun-21 04:05N 39°05' E 117°46'3 6.4
2015-Jun-21 03:33N 39°04' E 117°50'98846801.2
2015-Jun-21 03:32N 23°01' E 113°31'423.3
2015-Jun-21 03:22N 23°04' E 113°29'10536.8
2015-Jun-21 03:21N 22°57' E 113°36'66120324.8
2015-Jun-21 03:19N 31°31' E 121°21'3330011.4
2015-Jun-21 03:19N 30°58' E 121°18'6326048.7
2015-Jun-21 03:13N 23°04' E 113°29'98678841.0
2015-Jun-21 03:12N 39°05' E 117°44'517757.4
2015-Jun-21 02:31N 30°58' E 121°18'515617430.1
2015-Jun-21 02:31N 39°04' E 117°51'98863538.0
2015-Jun-21 02:30N 23°01' E 113°31'988104638.6
2015-Jun-21 02:29N 39°04' E 117°50'0 9.9
2015-Jun-21 02:28N 39°04' E 117°50'98518573.8
2015-Jun-21 02:25N 23°04' E 113°29'9855341.5
2015-Jun-21 02:14N 39°05' E 117°46'9917405.2
2015-Jun-21 02:06N 22°57' E 113°36'9911834.8
2015-Jun-21 01:34N 39°04' E 117°48'6033324154.1
2015-Jun-21 01:32N 33°28' W 117°42'683574339.9
2015-Jun-21 01:27N 22°57' E 113°36'10321.4
2015-Jun-21 01:25N 23°04' E 113°29'056.8
2015-Jun-21 01:25N 23°04' E 113°29'63218194.4
2015-Jun-21 01:23N 30°58' E 121°18'515623.3
2015-Jun-21 00:33N 39°04' E 117°48'99119086.2
2015-Jun-21 00:30N 22°57' E 113°36'63419837.3
2015-Jun-21 00:28N 30°58' E 121°18'63213219.5
2015-Jun-21 00:25N 23°04' E 113°29'049.8
2015-Jun-21 00:25N 23°04' E 113°29'632704.9
2015-Jun-20 23:31N 30°58' E 121°18'6326459.9
2015-Jun-20 23:25N 23°04' E 113°29'0 6.5
2015-Jun-20 23:22N 23°04' E 113°29'9855893.1
2015-Jun-20 23:12N 39°05' E 117°46'516768.6
2015-Jun-20 22:31N 30°59' E 121°19'6336024.2
2015-Jun-20 22:25N 23°04' E 113°29'059.4
2015-Jun-20 22:25N 23°04' E 113°29'333.8
2015-Jun-20 22:19N 23°01' E 113°31'638844.4
2015-Jun-20 21:33N 30°59' E 121°24'6385278.0
2015-Jun-20 21:26N 23°01' E 113°31'456.4
2015-Jun-20 21:22N 23°04' E 113°29'052.7
2015-Jun-20 21:22N 23°04' E 113°29'641769.8
2015-Jun-20 20:32N 31°02' E 121°29'6415453.7
2015-Jun-20 20:25N 23°04' E 113°29'0 1.3
2015-Jun-20 20:10N 23°04' E 113°29'4 5.4
2015-Jun-20 19:28N 23°01' E 113°31'475.7
2015-Jun-20 19:25N 23°04' E 113°29'0 0.0
2015-Jun-20 18:25N 23°04' E 113°29'051.8
2015-Jun-20 18:25N 23°04' E 113°29'31771.9
2015-Jun-20 18:25N 23°01' E 113°31'6522611.8
2015-Jun-20 18:10N 31°13' E 121°30'6511018.4
2015-Jun-20 17:31N 23°01' E 113°31'653138375.0
2015-Jun-20 17:31N 31°15' E 121°31'6526647.5
2015-Jun-20 17:25N 23°04' E 113°29'0 5.7
2015-Jun-20 17:22N 23°04' E 113°29'656814.0
2015-Jun-20 16:33N 31°19' E 121°33'657169069.6
2015-Jun-20 16:33N 23°01' E 113°31'324.2
2015-Jun-20 16:25N 23°04' E 113°29'0 0.1
2015-Jun-20 15:25N 23°04' E 113°29'367.6
2015-Jun-20 15:22N 23°01' E 113°31'419.2
2015-Jun-20 15:10N 23°04' E 113°29'4 5.9
2015-Jun-20 14:33N 23°01' E 113°31'7224.5
2015-Jun-20 14:31N 22°56' E 113°36'6597801.6
2015-Jun-20 14:26N 31°22' E 121°30'65662159.8
2015-Jun-20 14:25N 23°04' E 113°29'053.5
2015-Jun-20 14:25N 23°04' E 113°29'656739.7
2015-Jun-20 13:31N 31°22' E 121°30'65817411.0
2015-Jun-20 13:29N 23°01' E 113°31'453.8
2015-Jun-20 13:25N 23°04' E 113°29'056.1
2015-Jun-20 13:25N 23°04' E 113°29'9109.0
2015-Jun-20 13:19N 22°57' E 113°36'10004473.9
2015-Jun-20 13:06N 37°47' E 122°24'1 1.2
2015-Jun-20 12:33N 37°48' E 122°24'38923761.8
2015-Jun-20 12:32N 31°21' E 121°32'65737528.6
2015-Jun-20 12:31N 23°04' E 113°29'335.1
2015-Jun-20 12:25N 23°01' E 113°31'624.7
2015-Jun-20 12:10N 22°57' E 113°36'103507.8
2015-Jun-20 12:10N 23°04' E 113°29'6521036.7
2015-Jun-20 11:32N 31°15' E 121°32'65244291.3
2015-Jun-20 11:31N 23°04' E 113°29'3190.7
2015-Jun-20 11:30N 23°01' E 113°31'441.9
2015-Jun-20 11:25N 23°04' E 113°29'647749.0
2015-Jun-20 10:33N 31°11' E 121°28'64717791.3
2015-Jun-20 10:31N 23°04' E 113°29'9193.9
2015-Jun-20 10:28N 22°57' E 113°36'10194.7
2015-Jun-20 10:25N 23°04' E 113°29'6579689.7
2015-Jun-20 10:21N 31°23' E 121°30'658124746.4
2015-Jun-20 10:21N 23°01' E 113°31'645767.8
2015-Jun-20 09:30N 31°05' E 121°28'65017330.5
2015-Jun-20 09:28N 22°51' E 113°34'52140.4
2015-Jun-20 09:28N 22°57' E 113°36'10204.0
2015-Jun-20 09:25N 23°04' E 113°29'494.0
2015-Jun-20 09:23N 23°01' E 113°31'356.2
2015-Jun-20 09:19N 23°04' E 113°29'660869.3
2015-Jun-20 08:33N 31°40' E 121°13'66016160.5
2015-Jun-20 08:31N 23°04' E 113°29'9851.6
2015-Jun-20 08:30N 22°57' E 113°36'6557.1
2015-Jun-20 08:30N 23°01' E 113°31'413.6
2015-Jun-20 08:13N 23°04' E 113°29'659997.9
2015-Jun-20 07:33N 31°34' E 121°19'  
Track history (hours):
 
Tides and Currents Weather Stations Pressure Air Temp Water Temp Dewpoint Dewpoint Depression Visibility Wind Speed Wind Dir Waves Ship Positions

Callsign 000000 (name unknown)

Last reported at 2015-Jun-30 07:33 UTC. Time now 2015-Jun-30 08:23 UTC.
Position N 23°39' E 117°36'.

Type: Fishing. MMSI: 200007452.

Date/timePositionNaut miles runAvg speedWind from/ knotsBaromVisibWave heightAir tempDewpointWater temp
2015-Jun-30 07:33N 23°39' E 117°36'17122828.5
2015-Jun-30 07:33N 25°58' E 119°26'368442188.2
2015-Jun-30 07:33N 23°04' E 113°29'656337264.0
2015-Jun-30 07:33N 31°22' E 121°29'4412278.3
2015-Jun-30 07:32N 31°55' E 120°54'66274487.3
2015-Jun-30 07:32N 23°05' E 113°26'12485.9
2015-Jun-30 07:30N 22°56' E 113°34'66719853.1
2015-Jun-30 07:28N 32°01' E 120°47'0 4.5
2015-Jun-30 07:24N 32°01' E 120°47'66336163.8
2015-Jun-30 07:23N 23°02' E 113°32'3398.4
2015-Jun-30 07:23N 23°04' E 113°29'0 0.1
2015-Jun-30 06:33N 23°04' E 113°29'23542252.3
2015-Jun-30 06:33N 23°43' E 117°41'23725874.0
2015-Jun-30 06:32N 23°05' E 113°26'7433.2
2015-Jun-30 06:31N 23°01' E 113°32'66361180.7
2015-Jun-30 06:31N 31°55' E 120°54'7653.4
2015-Jun-30 06:30N 32°00' E 120°49'3706310.7
2015-Jun-30 06:27N 25°58' E 119°26'77911929.5
2015-Jun-30 06:23N 38°49' E 121°36'10335112.8
2015-Jun-30 06:11N 23°04' E 113°29'10132.3
2015-Jun-30 06:06N 22°56' E 113°34'1221.5
2015-Jun-30 05:33N 23°05' E 113°26'3206.3
2015-Jun-30 05:32N 23°04' E 113°29'24111554.9
2015-Jun-30 05:31N 23°48' E 117°47'23818631.1
2015-Jun-30 05:30N 22°56' E 113°34'668141361.6
2015-Jun-30 05:30N 32°00' E 120°49'71654.1
2015-Jun-30 05:30N 31°55' E 120°54'10358.2
2015-Jun-30 05:28N 32°01' E 120°44'37016027.1
2015-Jun-30 05:27N 25°58' E 119°26'3685643.8
2015-Jun-30 05:23N 23°04' E 113°29'466.5
2015-Jun-30 05:19N 23°01' E 113°32'7 9.2
2015-Jun-30 04:33N 23°05' E 113°26'31263.6
2015-Jun-30 04:33N 23°04' E 113°29'663341012.0
2015-Jun-30 04:33N 32°00' E 120°49'512167626.8
2015-Jun-30 04:33N 23°53' E 117°51'2445419.2
2015-Jun-30 04:30N 23°01' E 113°32'4984.7
2015-Jun-30 04:30N 23°04' E 113°29'2403.6
2015-Jun-30 04:30N 23°03' E 113°30'3687086.0
2015-Jun-30 04:27N 25°58' E 119°26'3656175.5
2015-Jun-30 04:23N 31°55' E 120°54'8630.8
2015-Jun-30 04:22N 32°01' E 120°47'0 4.9
2015-Jun-30 04:19N 32°01' E 120°48'664880.2
2015-Jun-30 03:33N 23°05' E 113°26'310059.6
2015-Jun-30 03:33N 23°04' E 113°29'25182038.6
2015-Jun-30 03:33N 23°58' E 117°56'506260247.4
2015-Jun-30 03:33N 32°00' E 120°49'72471.8
2015-Jun-30 03:33N 31°55' E 120°54'36559790.0
2015-Jun-30 03:33N 25°58' E 119°26'379341499.6
2015-Jun-30 03:33N 22°17' E 113°48'69333276.4
2015-Jun-30 03:31N 32°01' E 120°47'023.0
2015-Jun-30 03:31N 32°01' E 120°48'66441957.5
2015-Jun-30 03:30N 23°01' E 113°32'8492.7
2015-Jun-30 03:29N 23°02' E 113°23'633.9
2015-Jun-30 03:18N 23°04' E 113°29'3751511.7
2015-Jun-30 03:03N 22°38' E 120°15'5631139.1
2015-Jun-30 02:34N 32°00' E 120°49'6941248462.4
2015-Jun-30 02:33N 22°17' E 113°47'5136467.2
2015-Jun-30 02:33N 23°04' E 113°29'661216432.7
2015-Jun-30 02:33N 31°55' E 120°54'662340513.4
2015-Jun-30 02:33N 23°05' E 113°26'258116231.5
2015-Jun-30 02:33N 24°03' E 118°01'13819171.1
2015-Jun-30 02:33N 25°58' E 119°26'37017542.2
2015-Jun-30 02:31N 32°01' E 120°47'027.1
2015-Jun-30 02:31N 32°01' E 120°48'66311203.1
2015-Jun-30 02:27N 23°04' E 113°29'6607495.3
2015-Jun-30 02:22N 31°43' E 121°09'6618564.3
2015-Jun-30 02:17N 23°01' E 113°32'663909.7
2015-Jun-30 01:33N 31°55' E 120°54'6611190379.6
2015-Jun-30 01:33N 23°04' E 113°29'261313679.7
2015-Jun-30 01:33N 24°08' E 118°06'494111208.3
2015-Jun-30 01:33N 32°00' E 120°49'37038045.8
2015-Jun-30 01:33N 25°58' E 119°26'37018263.1
2015-Jun-30 01:31N 32°01' E 120°47'025.5
2015-Jun-30 01:31N 32°01' E 120°48'66362795.6
2015-Jun-30 01:30N 23°04' E 113°29'012.6
2015-Jun-30 01:30N 23°04' E 113°29'4207.3
2015-Jun-30 01:28N 23°01' E 113°32'665721.0
2015-Jun-30 00:33N 32°00' E 120°49'663596748.9
2015-Jun-30 00:33N 23°04' E 113°29'661132264.4
2015-Jun-30 00:33N 31°55' E 120°54'36577375.4
2015-Jun-30 00:33N 25°58' E 119°26'3687894.6
2015-Jun-30 00:30N 23°04' E 113°29'66328070.7
2015-Jun-30 00:28N 32°01' E 120°47'66488574.5
2015-Jun-30 00:28N 23°01' E 113°32'664217428.0
2015-Jun-30 00:28N 32°01' E 120°48'66361185.4
2015-Jun-30 00:27N 23°04' E 113°29'10653465.3
2015-Jun-30 00:09N 39°58' E 119°50'10651812.1
2015-Jun-29 23:33N 23°04' E 113°29'663238701.3
2015-Jun-29 23:33N 32°00' E 120°49'7886.7
2015-Jun-29 23:33N 31°55' E 120°54'486249988.4
2015-Jun-29 23:33N 39°58' E 119°50'841378348.3
2015-Jun-29 23:32N 25°58' E 119°26'37019322.1
2015-Jun-29 23:31N 32°01' E 120°47'026.9
2015-Jun-29 23:31N 32°01' E 120°48'66324600.5
2015-Jun-29 23:29N 23°04' E 113°29'27332731.9
2015-Jun-29 23:29N 24°15' E 118°17'2712204.6
2015-Jun-29 23:21N 23°01' E 113°32'416.3
2015-Jun-29 23:06N 23°04' E 113°29'0 0.3
2015-Jun-29 22:33N 23°04' E 113°29'663159148.0
2015-Jun-29 22:33N 32°00' E 120°49'48045493.8
2015-Jun-29 22:33N 39°58' E 119°50'486174989.7
2015-Jun-29 22:32N 31°55' E 120°54'661125296.7
2015-Jun-29 22:32N 23°04' E 113°29'27726991.5
2015-Jun-29 22:31N 24°18' E 118°21'4812958.7
2015-Jun-29 22:22N 32°01' E 120°48'0 7.0
2015-Jun-29 22:19N 32°01' E 120°47'6638869.7
2015-Jun-29 22:15N 23°04' E 113°29'663955.2
2015-Jun-29 21:33N 32°00' E 120°49'255215.0
2015-Jun-29 21:33N 31°43' E 121°09'660339454.3
2015-Jun-29 21:33N 23°04' E 113°29'1065239533.3
2015-Jun-29 21:32N 39°58' E 119°50'940376101.6
2015-Jun-29 21:32N 24°21' E 118°25'473283644.5
2015-Jun-29 21:32N 31°55' E 120°54'661216431.2
2015-Jun-29 21:32N 23°04' E 113°29'6304.3
2015-Jun-29 21:31N 23°02' E 113°23'668160278.1
2015-Jun-29 21:31N 32°01' E 120°48'0 7.1
2015-Jun-29 21:28N 32°01' E 120°47'66325382.4
2015-Jun-29 21:27N 23°04' E 113°29'4363.6
2015-Jun-29 21:26N 23°01' E 113°32'664753.9
2015-Jun-29 20:33N 32°00' E 120°49'663477428.6
2015-Jun-29 20:33N 23°04' E 113°29'661476178.3
2015-Jun-29 20:33N 31°55' E 120°54'48656448.9
2015-Jun-29 20:32N 39°58' E 119°50'1065153302.3
2015-Jun-29 20:32N 23°04' E 113°29'0154.4
2015-Jun-29 20:32N 23°04' E 113°29'6639740.5
2015-Jun-29 20:28N 32°01' E 120°47'0 2.7
2015-Jun-29 20:22N 32°01' E 120°48'66417203.4
2015-Jun-29 20:19N 23°01' E 113°32'4152.0
2015-Jun-29 20:18N 23°04' E 113°29'2882597.0
2015-Jun-29 20:11N 24°24' E 118°31'3701330885.3
2015-Jun-29 20:11N 29°43' E 122°02'151239.6
2015-Jun-29 19:33N 32°00' E 120°49'76179.4
2015-Jun-29 19:33N 31°55' E 120°54'48640695.7
2015-Jun-29 19:32N 39°58' E 119°50'620117415.7
2015-Jun-29 19:32N 29°48' E 122°05'6142210508.6
2015-Jun-29 19:32N 23°04' E 113°29'0650.1
2015-Jun-29 19:32N 23°04' E 113°29'4212.1
2015-Jun-29 19:31N 23°01' E 113°32'664265693.9
2015-Jun-29 19:31N 32°01' E 120°48'66339769.7
2015-Jun-29 19:30N 23°04' E 113°29'66320929.8
2015-Jun-29 19:28N 32°01' E 120°47'663731.1
2015-Jun-29 18:33N 23°04' E 113°29'663140420.2
2015-Jun-29 18:33N 32°00' E 120°49'74965.6
2015-Jun-29 18:33N 31°55' E 120°54'66139679.0
2015-Jun-29 18:32N 23°04' E 113°29'61836494.0
2015-Jun-29 18:31N 29°56' E 122°04'61828177.9
2015-Jun-29 18:30N 23°04' E 113°29'659131780.8
2015-Jun-29 18:29N 31°42' E 121°08'500450440.2
2015-Jun-29 18:29N 39°58' E 119°50'47927389.5
2015-Jun-29 18:28N 32°01' E 120°47'66318640.8
2015-Jun-29 18:26N 23°04' E 113°29'0 0.1
2015-Jun-29 17:33N 23°04' E 113°29'62953936.2
2015-Jun-29 17:33N 30°58' E 121°14'54585256.2
2015-Jun-29 17:32N 39°58' E 119°50'1065225437.3
2015-Jun-29 17:32N 23°04' E 113°29'0 1.2
2015-Jun-29 17:26N 23°04' E 113°29'496.3
2015-Jun-29 17:24N 23°01' E 113°32'6639899.3
2015-Jun-29 17:20N 31°55' E 120°54'662859.8
2015-Jun-29 16:33N 23°04' E 113°28'66299232.2
2015-Jun-29 16:33N 31°55' E 120°54'48640691.8
2015-Jun-29 16:32N 39°58' E 119°50'1065225436.9
2015-Jun-29 16:32N 23°04' E 113°29'0 0.7
2015-Jun-29 16:26N 23°04' E 113°29'6597210.0
2015-Jun-29 16:21N 31°42' E 121°08'251275.9
2015-Jun-29 16:20N 32°00' E 120°49'2499.0
2015-Jun-29 16:19N 32°01' E 120°47'0 4.9
2015-Jun-29 16:16N 32°01' E 120°48'691204.1
2015-Jun-29 16:12N 30°59' E 121°22'63625162.8
2015-Jun-29 16:11N 23°01' E 113°32'915.0
2015-Jun-29 15:33N 23°02' E 113°22'669240745.6
2015-Jun-29 15:33N 32°00' E 120°49'48033245.4
2015-Jun-29 15:32N 39°58' E 119°50'48672906.1
2015-Jun-29 15:32N 31°55' E 120°54'8912.2
2015-Jun-29 15:31N 32°01' E 120°47'66413982.9
2015-Jun-29 15:28N 23°01' E 113°32'30935908.8
2015-Jun-29 15:28N 24°42' E 118°51'31014898.7
2015-Jun-29 15:27N 23°04' E 113°29'0 2.3
2015-Jun-29 15:23N 23°04' E 113°29'0 1.4
2015-Jun-29 15:20N 23°04' E 113°29'65912227.5
2015-Jun-29 15:17N 31°42' E 121°08'36393.5
2015-Jun-29 15:11N 31°28' E 121°47'5992.4
2015-Jun-29 14:33N 32°00' E 120°49'446145916.6
2015-Jun-29 14:33N 24°46' E 118°55'10012889.9
2015-Jun-29 14:32N 23°38' E 117°34'987253696.0
2015-Jun-29 14:32N 39°58' E 119°50'1065273749.3
2015-Jun-29 14:32N 23°04' E 113°29'66860122.0
2015-Jun-29 14:31N 31°24' E 121°48'6687707.9
2015-Jun-29 14:26N 23°04' E 113°29'459.9
2015-Jun-29 14:22N 23°01' E 113°32'66316800.3
2015-Jun-29 14:19N 31°55' E 120°54'8621.2
2015-Jun-29 14:19N 32°01' E 120°48'441586.9
2015-Jun-29 13:34N 24°50' E 118°60'319104399.5
2015-Jun-29 13:33N 23°01' E 113°32'106758210.0
2015-Jun-29 13:32N 39°58' E 119°50'106519960.8
2015-Jun-29 13:29N 23°04' E 113°29'9365.8
2015-Jun-29 13:27N 23°03' E 113°19'9457.3
2015-Jun-29 13:26N 23°04' E 113°29'66115560.3
2015-Jun-29 13:24N 31°55' E 120°54'8359.9
2015-Jun-29 13:22N 32°01' E 120°47'281.9
2015-Jun-29 13:21N 32°00' E 120°49'58252.5
2015-Jun-29 13:07N 31°17' E 121°34'65524047.4
2015-Jun-29 13:06N 23°04' E 113°29'4 7.3
2015-Jun-29 12:33N 23°03' E 113°25'65426458.7
2015-Jun-29 12:32N 31°15' E 121°30'501251.3
2015-Jun-29 12:30N 31°55' E 120°54'48687494.7
2015-Jun-29 12:29N 39°58' E 119°50'106525380.9
2015-Jun-29 12:27N 23°04' E 113°29'441.6
2015-Jun-29 12:21N 23°01' E 113°32'4572.5
2015-Jun-29 12:20N 23°04' E 113°29'1 3.2
2015-Jun-29 12:06N 23°04' E 113°30'10651870.6
2015-Jun-29 11:32N 39°58' E 119°50'1067768372.1
2015-Jun-29 11:32N 23°01' E 113°32'2260.5
2015-Jun-29 11:32N 23°03' E 113°32'293.8
2015-Jun-29 11:30N 23°04' E 113°30'6615361.1
2015-Jun-29 11:23N 31°55' E 120°54'7155.5
2015-Jun-29 11:20N 32°00' E 120°49'84107.2
2015-Jun-29 10:34N 31°03' E 122°01'274870.3
2015-Jun-29 10:33N 31°01' E 121°29'54332049.9
2015-Jun-29 10:32N 39°58' E 119°50'1065425827.6
2015-Jun-29 10:32N 23°04' E 113°29'128.8
2015-Jun-29 10:30N 23°04' E 113°30'36824535.3
2015-Jun-29 10:30N 25°58' E 119°26'36426767.3
2015-Jun-29 10:29N 23°05' E 113°34'584.0
2015-Jun-29 10:25N 23°01' E 113°32'66341133.3
2015-Jun-29 10:24N 31°55' E 120°54'71307.6
2015-Jun-29 10:24N 32°00' E 120°49'248.7
2015-Jun-29 10:22N 32°01' E 120°47'030.1
2015-Jun-29 10:22N 32°01' E 120°48'6635777.8
2015-Jun-29 10:15N 23°04' E 113°29'1191.7
2015-Jun-29 10:08N 22°57' E 113°38'6611157.9
2015-Jun-29 09:33N 31°08' E 121°53'6927481.8
2015-Jun-29 09:33N 31°55' E 120°54'6072361.9
2015-Jun-29 09:33N 30°59' E 121°20'6726792.0
2015-Jun-29 09:33N 32°00' E 120°49'48030329.2
2015-Jun-29 09:32N 39°58' E 119°50'106751224.8
2015-Jun-29 09:31N 23°01' E 113°32'4386.6
2015-Jun-29 09:30N 23°04' E 113°30'162.5
2015-Jun-29 09:30N 23°04' E 113°29'368165783.8
2015-Jun-29 09:30N 25°58' E 119°26'37011591.4
2015-Jun-29 09:28N 32°01' E 120°48'0200.7
2015-Jun-29 09:28N 32°01' E 120°47'5134385.8
2015-Jun-29 09:21N 23°54' E 117°44'23934480.1
2015-Jun-29 09:20N 23°04' E 113°29'6503243.3
2015-Jun-29 09:08N 31°58' E 120°26'79137.0
2015-Jun-29 08:33N 31°17' E 121°45'349385.7
2015-Jun-29 08:33N 30°57' E 121°13'60216142.5
2015-Jun-29 08:33N 31°55' E 120°54'66343402.9
2015-Jun-29 08:32N 22°57' E 113°37'1070296185.0
2015-Jun-29 08:32N 39°58' E 119°50'106735573.0
2015-Jun-29 08:30N 23°01' E 113°32'665199355.5
2015-Jun-29 08:30N 32°00' E 120°49'37038045.8
2015-Jun-29 08:30N 25°58' E 119°26'36472885.8
2015-Jun-29 08:29N 31°58' E 120°26'650179903.9
2015-Jun-29 08:29N 23°04' E 113°29'66348694.3
2015-Jun-29 08:28N 32°01' E 120°47'66326510.5
2015-Jun-29 08:27N 23°04' E 113°29'667752.8
2015-Jun-29 07:34N 31°24' E 121°47'667109223.7
2015-Jun-29 07:33N 23°04' E 113°29'104402.1
2015-Jun-29 07:33N 22°57' E 113°37'62864570.3
2015-Jun-29 07:32N 31°01' E 121°06'62793998.0
2015-Jun-29 07:32N 23°04' E 113°29'66328759.1
2015-Jun-29 07:31N 32°00' E 120°49'14815.4
2015-Jun-29 07:31N 32°01' E 120°48'66442704.0
2015-Jun-29 07:30N 23°01' E 113°32'368120417.9
2015-Jun-29 07:30N 25°58' E 119°26'841121070.4
2015-Jun-29 07:29N 39°58' E 119°50'48128845.6
2015-Jun-29 07:28N 31°58' E 120°26'24648.4
2015-Jun-29 07:26N 31°55' E 120°54'6615337.1
2015-Jun-29 07:18N 23°04' E 113°30'665868.7
2015-Jun-29 06:33N 31°30' E 121°35'51568713.9
2015-Jun-29 06:32N 39°58' E 119°50'1065958139.5
2015-Jun-29 06:32N 23°04' E 113°29'35118308.4
2015-Jun-29 06:31N 25°15' E 119°26'35040699.1
2015-Jun-29 06:30N 23°04' E 113°30'4168.5
2015-Jun-29 06:29N 23°01' E 113°32'66445116.8
2015-Jun-29 06:28N 32°01' E 120°47'2102.0
2015-Jun-29 06:27N 32°00' E 120°49'37057894.1
2015-Jun-29 06:27N 25°58' E 119°26'368147350.0
2015-Jun-29 06:27N 23°04' E 113°29'66176796.2
2015-Jun-29 06:26N 31°55' E 120°54'18381.6
2015-Jun-29 06:23N 31°42' E 121°10'66525210.3
2015-Jun-29 06:22N 23°02' E 113°23'6683344.8
2015-Jun-29 06:10N 32°01' E 120°48'409674.7
2015-Jun-29 05:33N 25°17' E 119°31'8321497987.1
2015-Jun-29 05:33N 39°05' E 117°45'450161994.3
2015-Jun-29 05:33N 32°00' E 120°49'72254.0
2015-Jun-29 05:33N 31°55' E 120°54'365219237.2
2015-Jun-29 05:33N 25°58' E 119°26'3687054.0
2015-Jun-29 05:30N 23°04' E 113°29'1065100856.4
2015-Jun-29 05:29N 39°58' E 119°50'1067109768.0
2015-Jun-29 05:28N 23°01' E 113°32'430.0
2015-Jun-29 05:20N 23°04' E 113°29'6603360.6
2015-Jun-29 05:08N 31°42' E 121°10'35774.8
2015-Jun-29 05:06N 32°01' E 120°35'405749.2
2015-Jun-29 04:33N 25°19' E 119°36'3791362664.9
2015-Jun-29 04:33N 31°19' E 121°48'34488540.7
2015-Jun-29 04:33N 25°58' E 119°26'36569232.9
2015-Jun-29 04:32N 31°55' E 120°54'48664807.8
2015-Jun-29 04:32N 39°58' E 119°50'106527181.3
2015-Jun-29 04:30N 23°04' E 113°29'657337915.3
2015-Jun-29 04:30N 32°00' E 120°38'33299.5
2015-Jun-29 04:23N 31°42' E 121°10'47025254.1
2015-Jun-29 04:22N 39°04' E 117°51'9851182244.7
2015-Jun-29 04:22N 23°04' E 113°29'66356839.9
2015-Jun-29 04:21N 32°00' E 120°49'6657338.3
2015-Jun-29 04:16N 23°01' E 113°32'6646498.4
2015-Jun-29 04:10N 32°01' E 120°48'66225343.1
2015-Jun-29 04:08N 23°04' E 113°32'236.6
2015-Jun-29 04:04N 23°04' E 113°30'1 1.1
2015-Jun-29 03:34N 23°03' E 113°30'663341013.0
2015-Jun-29 03:33N 32°01' E 120°47'2433.5
2015-Jun-29 03:33N 32°00' E 120°49'5338.5
2015-Jun-29 03:32N 32°01' E 120°44'47975011.1
2015-Jun-29 03:32N 39°58' E 119°50'48683324.3
2015-Jun-29 03:32N 31°55' E 120°54'8488.1
2015-Jun-29 03:31N 32°01' E 120°48'27472.6
2015-Jun-29 03:27N 31°42' E 121°10'35644228.9
2015-Jun-29 03:27N 25°58' E 119°26'37611278.8
2015-Jun-29 03:25N 23°03' E 113°21'98939540.9
2015-Jun-29 03:23N 39°04' E 117°50'98514843.4
2015-Jun-29 03:19N 23°04' E 113°30'65659070.3
2015-Jun-29 03:19N 32°04' E 120°30'65641458.6
2015-Jun-29 03:18N 23°04' E 113°29'4101.7
2015-Jun-29 03:15N 23°01' E 113°32'664948.7
2015-Jun-29 02:33N 32°00' E 120°49'0465.3
2015-Jun-29 02:33N 32°00' E 120°49'666299725.4
2015-Jun-29 02:33N 23°03' E 113°25'372103072.2
2015-Jun-29 02:33N 25°58' E 119°26'3685076.3
2015-Jun-29 02:28N 23°04' E 113°30'4125.4
2015-Jun-29 02:27N 23°01' E 113°32'1598.5
2015-Jun-29 02:18N 23°04' E 113°16'5 6.7
2015-Jun-29 01:33N 23°02' E 113°21'10433.3
2015-Jun-29 01:32N 23°01' E 113°32'3682417.2
2015-Jun-29 01:23N 25°58' E 119°26'3802105.7
2015-Jun-29 01:12N 22°17' E 113°48'4668.7
2015-Jun-29 00:32N 23°01' E 113°32'4144.5
2015-Jun-29 00:30N 23°04' E 113°29'36828832.4
2015-Jun-29 00:29N 25°58' E 119°26'1859.1
2015-Jun-29 00:11N 25°44' E 119°39'372560.4
2015-Jun-28 23:31N 23°01' E 113°32'37615374.3
2015-Jun-28 23:29N 25°49' E 119°41'161686.9
2015-Jun-28 23:29N 25°58' E 119°26'3686501.4
2015-Jun-28 23:26N 23°04' E 113°29'973.6
2015-Jun-28 23:18N 23°03' E 113°19'5 7.0
2015-Jun-28 22:33N 23°03' E 113°25'434.7
2015-Jun-28 22:25N 23°04' E 113°29'4218.0
2015-Jun-28 22:24N 23°01' E 113°32'1 1.7
2015-Jun-28 21:32N 23°02' E 113°31'140.3
2015-Jun-28 21:30N 23°01' E 113°32'4215.1
2015-Jun-28 21:28N 23°04' E 113°29'4 4.6
2015-Jun-28 20:32N 23°01' E 113°32'6117.3
2015-Jun-28 20:28N 22°54' E 113°30'2402581.3
2015-Jun-28 20:23N 23°55' E 117°44'238280.4
2015-Jun-28 19:32N 22°56' E 113°33'9144.6
2015-Jun-28 19:28N 23°04' E 113°29'1314.3
2015-Jun-28 18:32N 22°52' E 113°34'1350.3
2015-Jun-28 18:16N 23°04' E 113°29'0 0.0
2015-Jun-28 17:28N 23°04' E 113°29'19194.4
2015-Jun-28 17:23N 22°47' E 113°38'1920.9
2015-Jun-28 16:28N 23°04' E 113°29'0 0.1
2015-Jun-28 15:28N 23°04' E 113°29'662652.9
2015-Jun-28 14:28N 31°30' E 121°30'66219070.0
2015-Jun-28 14:26N 23°04' E 113°29'3 3.7
2015-Jun-28 13:33N 23°04' E 113°25'66258095.4
2015-Jun-28 13:33N 31°28' E 121°28'8 8.3
2015-Jun-28 12:33N 31°23' E 121°36'6672896.9
2015-Jun-28 12:19N 23°03' E 113°19'668885.8
2015-Jun-28 11:33N 31°18' E 121°44'66711163.9
2015-Jun-28 11:30N 23°02' E 113°23'988177923.7
2015-Jun-28 11:30N 37°37' E 122°17'85530794.0
2015-Jun-28 11:28N 23°53' E 117°49'153397.6
2015-Jun-28 11:05N 25°58' E 119°26'371701.7
2015-Jun-28 10:33N 23°04' E 113°26'37017312.1
2015-Jun-28 10:32N 25°58' E 119°25'3427193.7
2015-Jun-28 10:29N 31°22' E 121°30'656706.1
2015-Jun-28 09:33N 23°04' E 113°29'98637751.5
2015-Jun-28 09:32N 37°43' E 122°06'7194190.6
2015-Jun-28 09:21N 25°57' E 119°23'722606.6
2015-Jun-28 08:10N 37°47' E 121°59'102312962.6
2015-Jun-28 08:05N 22°17' E 113°48'10231936.9
2015-Jun-28 07:33N 37°49' E 121°56'210209.4
2015-Jun-28 06:33N 39°05' E 117°45'2087077.6
2015-Jun-28 06:31N 37°50' E 121°54'9877726.5
2015-Jun-28 06:24N 23°03' E 113°31'9871170.6
2015-Jun-28 05:33N 39°04' E 117°50'2042571.9
2015-Jun-28 05:28N 37°50' E 121°54'0 0.0
2015-Jun-28 04:28N 37°50' E 121°54'2052216.0
2015-Jun-28 04:23N 39°04' E 117°50'1028925194.6
2015-Jun-28 04:23N 22°17' E 113°48'10281243.8
2015-Jun-28 03:33N 39°05' E 117°44'2105096.7
2015-Jun-28 03:31N 37°50' E 121°54'204199.7
2015-Jun-28 02:30N 39°04' E 117°51'1029740630.5
2015-Jun-28 02:29N 22°16' E 113°49'511166.9
2015-Jun-28 02:27N 23°04' E 113°29'9863431.3
2015-Jun-28 02:10N 37°50' E 121°54'0 0.0
2015-Jun-28 01:31N 37°50' E 121°54'20617680.9
2015-Jun-28 01:30N 39°04' E 117°48'10284023.1
2015-Jun-28 01:15N 22°17' E 113°48'10231394.3
2015-Jun-28 00:31N 37°50' E 121°54'98615996.3
2015-Jun-28 00:27N 23°04' E 113°29'0 0.0
2015-Jun-27 23:27N 23°04' E 113°29'910.1
2015-Jun-27 22:32N 23°03' E 113°19'931.7
2015-Jun-27 22:15N 23°04' E 113°29'4 5.3
2015-Jun-27 21:33N 23°04' E 113°25'410.6
2015-Jun-27 21:12N 23°04' E 113°29'0 0.3
2015-Jun-27 20:33N 23°04' E 113°29'683653972.3
2015-Jun-27 20:25N 33°27' W 117°42'587796174.7
2015-Jun-27 20:22N 37°50' E 121°54'98716441.7
2015-Jun-27 20:18N 23°04' E 113°29'1352.7
2015-Jun-27 20:04N 22°52' E 113°32'1324.9
2015-Jun-27 19:33N 23°04' E 113°29'24151100.8
2015-Jun-27 19:33N 23°53' E 117°47'862106952.4
2015-Jun-27 19:32N 37°48' E 121°53'98524293.2
2015-Jun-27 19:30N 23°04' E 113°29'0 0.2
2015-Jun-27 18:33N 23°04' E 113°29'98472309.8
2015-Jun-27 18:32N 37°47' E 121°53'984997.8
2015-Jun-27 17:33N 23°04' E 113°29'0 2.9
2015-Jun-27 17:30N 23°04' E 113°29'684129853.0
2015-Jun-27 17:16N 33°21' W 117°39'2 3.2
2015-Jun-27 16:33N 33°23' W 117°41'68394103237.6
2015-Jun-27 16:33N 23°04' E 113°29'0 0.0
2015-Jun-27 15:32N 23°04' E 113°29'0 4.0
2015-Jun-27 15:30N 23°04' E 113°29'6835683530.2
2015-Jun-27 15:29N 33°21' W 117°46'68357297.4
2015-Jun-27 14:33N 23°04' E 113°29'0 2.7
2015-Jun-27 14:30N 23°04' E 113°29'6835203369.9
2015-Jun-27 14:28N 33°19' W 117°47'68357488.6
2015-Jun-27 13:33N 23°04' E 113°29'6838153856.0
2015-Jun-27 13:31N 33°19' W 117°44'6838745973.8
2015-Jun-27 13:30N 23°04' E 113°29'10808.2
2015-Jun-27 13:29N 22°55' E 113°33'910.1
2015-Jun-27 12:33N 23°04' E 113°30'114.3
2015-Jun-27 12:30N 23°04' E 113°29'4162.3
2015-Jun-27 12:29N 23°01' E 113°31'671979.8
2015-Jun-27 12:27N 22°04' E 114°08'684066552.1
2015-Jun-27 12:20N 33°25' W 117°42'68368632.0
2015-Jun-27 11:33N 23°04' E 113°30'98549253.2
2015-Jun-27 11:32N 37°48' E 121°53'9854319.9
2015-Jun-27 11:18N 23°04' E 113°29'1 0.9
2015-Jun-27 10:33N 23°04' E 113°30'37211077.7
2015-Jun-27 10:31N 22°32' E 120°12'3513337.2
2015-Jun-27 10:25N 22°10' E 113°53'5867.5
2015-Jun-27 09:33N 23°04' E 113°30'539042.3
2015-Jun-27 09:33N 22°14' E 113°49'531112.6
2015-Jun-27 09:30N 23°06' E 113°37'3726408.6
2015-Jun-27 09:27N 22°34' E 120°19'3792676.3
2015-Jun-27 09:18N 23°04' E 113°29'1 0.9
2015-Jun-27 08:33N 23°04' E 113°30'3115.9
2015-Jun-27 08:32N 23°02' E 113°32'2227.8
2015-Jun-27 08:31N 23°04' E 113°33'3 7.9
2015-Jun-27 08:06N 23°04' E 113°29'1 1.2
2015-Jun-27 07:33N 23°04' E 113°30'6296.0
2015-Jun-27 07:32N 23°02' E 113°24'56552.5
2015-Jun-27 07:32N 23°04' E 113°29'029.8
2015-Jun-27 07:32N 23°04' E 113°29'3765.8
2015-Jun-27 07:31N 23°02' E 113°32'9876591.4
2015-Jun-27 07:22N 39°05' E 117°45'98512270.1
2015-Jun-27 07:17N 23°07' E 113°17'1216.7
2015-Jun-27 06:33N 23°04' E 113°30'518102.3
2015-Jun-27 06:33N 23°02' E 113°24'5165.1
2015-Jun-27 06:32N 23°04' E 113°29'462.7
2015-Jun-27 06:28N 23°01' E 113°32'15142.1
2015-Jun-27 06:21N 23°07' E 113°17'9789.1
2015-Jun-27 06:21N 23°02' E 113°24'5 6.4
2015-Jun-27 05:33N 23°04' E 113°29'42573.3
2015-Jun-27 05:33N 23°01' E 113°32'98813173.8
2015-Jun-27 05:29N 39°05' E 117°46'4563673.0
2015-Jun-27 05:21N 31°55' E 120°54'212.0
2015-Jun-27 05:13N 31°54' E 120°53'83902.6
2015-Jun-27 05:13N 31°60' E 120°48'116734.0
2015-Jun-27 05:13N 32°02' E 120°35'1827.0
2015-Jun-27 04:33N 31°55' E 120°54'42771.3
2015-Jun-27 04:33N 31°51' E 120°54'42532.3
2015-Jun-27 04:33N 31°48' E 120°55'148147.9
2015-Jun-27 04:33N 32°00' E 120°49'449202268.7
2015-Jun-27 04:33N 39°05' E 117°47'985886737.3
2015-Jun-27 04:33N 23°04' E 113°29'66258111.2
2015-Jun-27 04:32N 31°60' E 120°48'66255415.4
2015-Jun-27 04:32N 23°04' E 113°29'663119325.1
2015-Jun-27 04:31N 32°01' E 120°48'1138941.6
2015-Jun-27 04:31N 32°02' E 120°35'6588346.4
2015-Jun-27 04:26N 23°01' E 113°32'14163.5
2015-Jun-27 04:21N 22°47' E 113°36'181735.6
2015-Jun-27 04:21N 23°02' E 113°24'13303.9
2015-Jun-27 04:18N 22°53' E 113°34'223.9
2015-Jun-27 04:13N 22°52' E 113°32'6691018.1
2015-Jun-27 03:33N 31°55' E 120°52'621134.3
2015-Jun-27 03:33N 32°00' E 120°49'663170499.2
2015-Jun-27 03:33N 23°04' E 113°29'985136410.2
2015-Jun-27 03:32N 39°04' E 117°50'1621.6
2015-Jun-27 03:32N 39°04' E 117°51'454148477.8
2015-Jun-27 03:32N 31°55' E 120°54'663183603.4
2015-Jun-27 03:32N 23°01' E 113°32'81291.5
2015-Jun-27 03:32N 22°54' E 113°34'6632387321.9
2015-Jun-27 03:32N 31°48' E 120°57'162539.2
2015-Jun-27 03:31N 32°01' E 120°48'1227.0
2015-Jun-27 03:31N 31°60' E 120°48'4213.0
2015-Jun-27 03:30N 31°60' E 120°43'65921192.0
2015-Jun-27 03:28N 23°04' E 113°29'575.6
2015-Jun-27 03:24N 23°02' E 113°24'661216466.0
2015-Jun-27 03:23N 32°02' E 120°35'41364.3
2015-Jun-27 03:17N 31°39' E 121°14'665913.1
2015-Jun-27 02:33N 23°02' E 113°23'66512089.9
2015-Jun-27 02:30N 31°36' E 121°17'66081887.4
2015-Jun-27 02:29N 23°04' E 113°29'66259545.3
2015-Jun-27 02:29N 31°55' E 120°54'7919.5
2015-Jun-27 02:28N 32°00' E 120°49'2420.0
2015-Jun-27 02:28N 32°01' E 120°47'663238536.4
2015-Jun-27 02:28N 23°04' E 113°29'499.1
2015-Jun-27 02:25N 23°01' E 113°32'9882.7
2015-Jun-27 02:25N 22°52' E 113°32'99712816.4
2015-Jun-27 02:20N 39°05' E 117°46'4672560.6
2015-Jun-27 02:09N 31°46' E 121°04'2135.4
2015-Jun-27 01:33N 32°01' E 120°47'92811.3
2015-Jun-27 01:33N 31°55' E 120°54'6621190887.5
2015-Jun-27 01:33N 23°04' E 113°29'663298360.3
2015-Jun-27 01:33N 32°00' E 120°49'667171641.7
2015-Jun-27 01:33N 23°07' E 113°17'985104320.3
2015-Jun-27 01:32N 39°04' E 117°48'44980884.6
2015-Jun-27 01:32N 31°60' E 120°48'66332267.4
2015-Jun-27 01:31N 23°01' E 113°32'660198088.4
2015-Jun-27 01:31N 31°32' E 121°22'491011.4
2015-Jun-27 01:28N 32°02' E 120°35'33473.7
2015-Jun-27 01:23N 31°43' E 121°08'5 5.9
2015-Jun-27 00:34N 31°40' E 121°12'473141941.5
2015-Jun-27 00:33N 39°04' E 117°51'985154216.6
2015-Jun-27 00:33N 23°04' E 113°29'66062483.8
2015-Jun-27 00:32N 31°28' E 121°27'66595707.9
2015-Jun-27 00:32N 23°07' E 113°17'1298.9
2015-Jun-27 00:25N 23°04' E 113°29'3292.9
2015-Jun-27 00:24N 23°01' E 113°31'6635564.5
2015-Jun-27 00:17N 32°01' E 120°45'101335.2
2015-Jun-27 00:16N 31°55' E 120°54'2738.3
2015-Jun-26 23:34N 31°36' E 121°18'3525183.5
2015-Jun-26 23:33N 32°01' E 120°49'83066.9
2015-Jun-26 23:33N 31°55' E 120°54'6622381924.9
2015-Jun-26 23:33N 23°04' E 113°29'663298378.8
2015-Jun-26 23:33N 32°00' E 120°49'536104.8
2015-Jun-26 23:33N 31°24' E 121°34'49747047.9
2015-Jun-26 23:32N 39°05' E 117°46'44725547.2
2015-Jun-26 23:31N 32°02' E 120°45'81020.2
2015-Jun-26 23:30N 32°02' E 120°35'116633.5
2015-Jun-26 23:30N 31°60' E 120°48'6678667.2
2015-Jun-26 23:26N 23°02' E 113°23'650.2
2015-Jun-26 23:18N 23°04' E 113°29'0 1.1
2015-Jun-26 23:07N 23°04' E 113°29'1 1.0
2015-Jun-26 22:33N 23°04' E 113°29'659158211.7
2015-Jun-26 22:33N 31°32' E 121°22'659124941.5
2015-Jun-26 22:33N 23°04' E 113°28'025.1
2015-Jun-26 22:32N 23°04' E 113°29'379.0
2015-Jun-26 22:29N 23°01' E 113°31'66222256.7
2015-Jun-26 22:27N 31°20' E 121°39'6606678.9
2015-Jun-26 22:21N 23°04' E 113°29'6627422.6
2015-Jun-26 22:16N 32°02' E 120°45'1138103.0
2015-Jun-26 22:16N 31°55' E 120°54'73105.3
2015-Jun-26 22:16N 32°00' E 120°49'663922.0
2015-Jun-26 21:33N 23°04' E 113°29'65913644.1
2015-Jun-26 21:30N 31°28' E 121°28'135127.7
2015-Jun-26 21:30N 31°20' E 121°39'66382345.8
2015-Jun-26 21:29N 22°58' E 113°33'4345.0
2015-Jun-26 21:28N 23°01' E 113°31'349.0
2015-Jun-26 21:24N 23°04' E 113°29'6638089.6
2015-Jun-26 21:19N 32°01' E 120°48'87331.0
2015-Jun-26 21:19N 31°55' E 120°54'116355.0
2015-Jun-26 21:19N 32°02' E 120°45'85750.0
2015-Jun-26 21:19N 32°02' E 120°35'12929.9
2015-Jun-26 21:18N 32°00' E 120°49'1490.7
2015-Jun-26 21:18N 31°60' E 120°48'662885.2
2015-Jun-26 20:33N 23°04' E 113°29'0172.8
2015-Jun-26 20:33N 23°04' E 113°29'65960849.7
2015-Jun-26 20:33N 31°25' E 121°31'8714.7
2015-Jun-26 20:32N 31°20' E 121°39'69570.6
2015-Jun-26 20:25N 32°02' E 120°35'184860.4
2015-Jun-26 20:24N 31°55' E 120°54'71176.6
2015-Jun-26 20:24N 32°00' E 120°49'1665.1
2015-Jun-26 20:24N 31°60' E 120°48'148.3
2015-Jun-26 20:22N 32°01' E 120°48'65913633.8
2015-Jun-26 20:19N 23°05' E 113°35'589.1
2015-Jun-26 20:16N 23°01' E 113°31'66319410.2
2015-Jun-26 20:14N 32°02' E 120°45'0 0.0
2015-Jun-26 19:33N 32°02' E 120°45'663217045.8
2015-Jun-26 19:33N 23°01' E 113°31'311979.8
2015-Jun-26 19:33N 23°04' E 113°29'663795763.6
2015-Jun-26 19:33N 32°00' E 120°49'66324608.9
2015-Jun-26 19:32N 23°04' E 113°29'6621191288.2
2015-Jun-26 19:32N 31°60' E 120°48'591064.8
2015-Jun-26 19:28N 31°20' E 121°39'60172.1
2015-Jun-26 19:07N 32°01' E 120°48'65911405.1
2015-Jun-26 19:04N 23°05' E 113°35'510.3
2015-Jun-26 18:33N 23°04' E 113°29'635175953.1
2015-Jun-26 18:33N 31°09' E 121°11'63587967.5
2015-Jun-26 18:33N 23°04' E 113°29'66019812.2
2015-Jun-26 18:31N 31°20' E 121°39'6564517.3
2015-Jun-26 18:22N 23°05' E 113°35'5372.6
2015-Jun-26 18:21N 23°04' E 113°29'3368.3
2015-Jun-26 18:21N 23°01' E 113°31'66410631.4
2015-Jun-26 18:17N 32°00' E 120°49'4485.2
2015-Jun-26 18:16N 32°02' E 120°45'5982.4
2015-Jun-26 17:33N 31°07' E 121°10'633253284.2
2015-Jun-26 17:33N 23°04' E 113°29'660139845.1
2015-Jun-26 17:33N 31°20' E 121°39'6567745.7
2015-Jun-26 17:28N 23°05' E 113°35'9863449.5
2015-Jun-26 17:11N 37°51' E 121°57'41618284.3
2015-Jun-26 17:09N 30°55' E 122°05'4880.3
2015-Jun-26 16:33N 31°03' E 121°10'63166807.7
2015-Jun-26 16:33N 23°04' E 113°29'66067908.7
2015-Jun-26 16:32N 31°00' E 122°03'4103033.0
2015-Jun-26 16:24N 37°51' E 121°57'39121971.9
2015-Jun-26 16:23N 31°20' E 121°39'65632362.1
2015-Jun-26 16:22N 23°05' E 113°34'656809.2
2015-Jun-26 15:33N 31°08' E 121°54'6602377757.2
2015-Jun-26 15:33N 23°04' E 113°29'1169.3
2015-Jun-26 15:33N 23°04' E 113°29'98867084.1
2015-Jun-26 15:32N 37°50' E 121°57'9887437.9
2015-Jun-26 15:24N 23°04' E 113°29'6624617.5
2015-Jun-26 15:16N 32°02' E 120°45'41137.4
2015-Jun-26 15:15N 32°00' E 120°49'666950.3
2015-Jun-26 14:33N 22°57' E 113°36'6386.1
2015-Jun-26 14:32N 23°01' E 113°31'93074.6
2015-Jun-26 14:32N 23°02' E 113°21'99154080.6
2015-Jun-26 14:31N 37°49' E 121°57'393108910.5
2015-Jun-26 14:31N 31°15' E 121°46'6615902.2
2015-Jun-26 14:24N 23°04' E 113°29'0 0.0
2015-Jun-26 13:33N 23°04' E 113°29'104435.4
2015-Jun-26 13:33N 22°57' E 113°36'990356519.0
2015-Jun-26 13:33N 37°48' E 121°57'386106954.1
2015-Jun-26 13:33N 31°22' E 121°48'674142714.2
2015-Jun-26 13:32N 22°53' E 113°30'6441571.7
2015-Jun-26 13:08N 30°59' E 121°23'6361101.7
2015-Jun-26 12:33N 23°04' E 113°29'667150150.2
2015-Jun-26 12:33N 31°28' E 121°41'379195140.7
2015-Jun-26 12:33N 37°48' E 121°57'3525538.9
2015-Jun-26 12:29N 32°02' E 120°35'356383.5
2015-Jun-26 11:33N 37°51' E 121°57'8658392.6
2015-Jun-26 11:27N 23°52' E 117°52'2463030.3
2015-Jun-26 11:22N 23°04' E 113°29'6575078.9
2015-Jun-26 11:15N 31°59' E 120°40'4110.9
2015-Jun-26 11:12N 32°02' E 120°35'510776.8
2015-Jun-26 10:33N 23°54' E 117°46'911156105.3
2015-Jun-26 10:32N 39°04' E 117°47'51697805.8
2015-Jun-26 10:32N 30°59' E 121°24'6365032.0
2015-Jun-26 10:25N 23°04' E 113°29'636722.9
2015-Jun-26 09:32N 30°59' E 121°24'5147748.5
2015-Jun-26 09:28N 39°04' E 117°51'985253366.7
2015-Jun-26 09:28N 23°04' E 113°29'636651.6
2015-Jun-26 08:29N 30°59' E 121°24'6625425.1
2015-Jun-26 08:22N 22°17' E 113°49'10284920.7
2015-Jun-26 08:09N 39°05' E 117°46'98511515.1
2015-Jun-26 08:04N 23°04' E 113°29'55106.0
2015-Jun-26 07:33N 22°12' E 113°48'555104.5
2015-Jun-26 07:32N 23°04' E 113°29'636152637.4
2015-Jun-26 07:32N 30°59' E 121°24'75985.5
2015-Jun-26 07:27N 32°02' E 120°35'443489.4
2015-Jun-26 06:33N 39°04' E 117°49'51527278.9
2015-Jun-26 06:32N 30°59' E 121°24'66812395.2
2015-Jun-26 06:28N 22°10' E 113°48'57918.8
2015-Jun-26 06:25N 23°04' E 113°29'6571803.9
2015-Jun-26 06:03N 31°59' E 120°40'42279.8
2015-Jun-26 06:03N 32°02' E 120°35'443872.4
2015-Jun-26 05:32N 39°04' E 117°51'51550088.1
2015-Jun-26 05:32N 30°59' E 121°24'252051.8
2015-Jun-26 05:31N 31°24' E 121°31'69116920.9
2015-Jun-26 05:29N 22°10' E 113°48'574473.8
2015-Jun-26 05:28N 23°04' E 113°29'664726.1
2015-Jun-26 04:33N 31°30' E 121°32'508203047.4
2015-Jun-26 04:33N 39°50' E 119°47'51924906.0
2015-Jun-26 04:32N 31°19' E 121°34'6881239168.7
2015-Jun-26 04:31N 22°10' E 113°48'66814843.6
2015-Jun-26 04:29N 30°59' E 121°24'63636928.4
2015-Jun-26 04:28N 23°04' E 113°29'1027.8
2015-Jun-26 04:07N 22°57' E 113°36'6691191.0
2015-Jun-26 03:33N 31°30' E 121°38'667218243.6
2015-Jun-26 03:33N 23°04' E 113°29'651156185.8
2015-Jun-26 03:32N 31°15' E 121°30'161242.7
2015-Jun-26 03:32N 30°59' E 121°24'66812524.2
2015-Jun-26 03:28N 22°10' E 113°48'48260.9
2015-Jun-26 03:17N 22°57' E 113°36'6609738.2
2015-Jun-26 03:13N 32°02' E 120°35'113488.2
2015-Jun-26 03:13N 32°01' E 120°48'71103.6
2015-Jun-26 03:13N 31°59' E 120°40'788.8
2015-Jun-26 03:08N 32°01' E 120°32'6911194.0
2015-Jun-26 02:33N 22°11' E 113°47'674110308.5
2015-Jun-26 02:33N 31°04' E 121°28'281080.6
2015-Jun-26 02:31N 31°28' E 121°44'67131391.7
2015-Jun-26 02:30N 22°57' E 113°36'63827015.5
2015-Jun-26 02:29N 30°59' E 121°23'6364073.5
2015-Jun-26 02:19N 23°04' E 113°29'6553041.0
2015-Jun-26 02:06N 32°01' E 120°32'3120.8
2015-Jun-26 02:05N 32°02' E 120°35'11892.4
2015-Jun-26 02:04N 32°01' E 120°48'71153.5
2015-Jun-26 02:04N 31°59' E 120°40'6601287.1
2015-Jun-26 01:33N 22°57' E 113°36'66072040.7
2015-Jun-26 01:32N 31°59' E 120°40'47979.2
2015-Jun-26 01:32N 32°02' E 120°35'65735836.3
2015-Jun-26 01:31N 23°04' E 113°29'66313183.2
2015-Jun-26 01:28N 32°01' E 120°48'14543.3
2015-Jun-26 01:27N 32°01' E 120°32'719131.6
2015-Jun-26 01:26N 31°08' E 121°27'1085.7
2015-Jun-26 01:20N 30°59' E 121°23'6624164.2
2015-Jun-26 01:10N 22°18' E 113°48'6871122.5
2015-Jun-26 00:33N 32°02' E 120°35'66060926.4
2015-Jun-26 00:33N 22°57' E 113°36'63837036.7
2015-Jun-26 00:32N 30°59' E 121°23'6919032.7
2015-Jun-26 00:32N 32°01' E 120°48'41135242.8
2015-Jun-26 00:31N 38°50' E 121°40'4136150.8
2015-Jun-26 00:27N 31°59' E 120°40'65710856.8
2015-Jun-26 00:23N 23°04' E 113°29'650781.0
2015-Jun-25 23:33N 31°15' E 121°29'663208.8
2015-Jun-25 23:32N 32°02' E 120°35'7514943.9
2015-Jun-25 23:32N 30°59' E 121°23'698838.5
2015-Jun-25 23:31N 32°01' E 120°48'7403.0
2015-Jun-25 23:30N 31°59' E 120°40'66011057.5
2015-Jun-25 23:27N 22°57' E 113°36'10174.5
2015-Jun-25 23:23N 23°04' E 113°29'655784.2
2015-Jun-25 22:33N 31°17' E 121°34'487146029.1
2015-Jun-25 22:33N 23°54' E 117°44'50919687.2
2015-Jun-25 22:31N 32°01' E 120°32'311111.4
2015-Jun-25 22:31N 32°02' E 120°35'115481.7
2015-Jun-25 22:31N 32°01' E 120°48'66621399.6
2015-Jun-25 22:29N 22°57' E 113°36'63857413.2
2015-Jun-25 22:29N 30°59' E 121°24'3235.1
2015-Jun-25 21:33N 31°26' E 121°44'1221122.0
2015-Jun-25 21:33N 31°21' E 121°32'642393.3
2015-Jun-25 21:32N 32°02' E 120°35'111037.0
2015-Jun-25 21:31N 32°01' E 120°48'70587563.4
2015-Jun-25 21:31N 22°11' E 113°34'54716.5
2015-Jun-25 21:26N 23°04' E 113°29'1095.1
2015-Jun-25 21:20N 22°57' E 113°36'4761.0
2015-Jun-25 20:33N 22°09' E 113°38'703101196.9
2015-Jun-25 20:33N 31°19' E 121°48'153253.6
2015-Jun-25 20:33N 31°23' E 121°31'61218494.1
2015-Jun-25 20:33N 32°02' E 120°35'11143.2
2015-Jun-25 20:28N 32°01' E 120°48'6667285.1
2015-Jun-25 20:23N 22°57' E 113°36'106122477.4
2015-Jun-25 20:20N 39°50' E 119°47'105611081.4
2015-Jun-25 20:14N 23°04' E 113°29'661973.8
2015-Jun-25 19:33N 31°15' E 121°47'699838610.8
2015-Jun-25 19:33N 22°06' E 113°43'700629803.4
2015-Jun-25 19:33N 32°02' E 120°35'575024.7
2015-Jun-25 19:33N 31°27' E 121°28'66133992.5
2015-Jun-25 19:31N 22°57' E 113°36'66612228.4
2015-Jun-25 19:28N 32°01' E 120°48'4347.1
2015-Jun-25 18:33N 31°30' E 121°23'52186295.1
2015-Jun-25 18:33N 32°02' E 120°35'814285.9
2015-Jun-25 18:32N 31°11' E 121°49'726206.7
2015-Jun-25 18:31N 32°01' E 120°48'70581920.1
2015-Jun-25 18:31N 22°03' E 113°48'698733.1
2015-Jun-25 17:33N 31°34' E 121°19'698251446.1
2015-Jun-25 17:33N 22°03' E 113°48'69729181.7
2015-Jun-25 17:32N 31°11' E 121°49'6602230.6
2015-Jun-25 17:14N 23°04' E 113°29'659971.8
2015-Jun-25 16:33N 31°38' E 121°14'700503782.2
2015-Jun-25 16:33N 22°03' E 113°48'64529.5
2015-Jun-25 16:26N 23°04' E 113°29'66015629.2
2015-Jun-25 16:24N 31°11' E 121°49'81852.2
2015-Jun-25 16:18N 32°02' E 120°35'11368.9
2015-Jun-25 16:16N 32°01' E 120°48'148180.5
2015-Jun-25 16:16N 32°01' E 120°32'0 0.0
2015-Jun-25 15:30N 32°01' E 120°32'31234.0
2015-Jun-25 15:30N 32°02' E 120°35'8114570.7
2015-Jun-25 15:30N 31°11' E 121°49'473842.0
2015-Jun-25 15:29N 31°42' E 121°08'26416.2
2015-Jun-25 15:25N 32°01' E 120°48'66319402.3
2015-Jun-25 15:23N 23°04' E 113°29'641789.1
2015-Jun-25 15:21N 22°03' E 113°48'0 0.0
2015-Jun-25 14:33N 22°03' E 113°48'6979193.7
2015-Jun-25 14:29N 31°11' E 121°49'2 2.1
2015-Jun-25 13:33N 31°11' E 121°52'69871790.4
2015-Jun-25 13:33N 22°03' E 113°48'64177.5
2015-Jun-25 13:11N 23°04' E 113°29'1116.9
2015-Jun-25 12:33N 23°06' E 113°18'66734311.9
2015-Jun-25 12:32N 31°07' E 121°57'6622189.9
2015-Jun-25 12:14N 23°04' E 113°29'661895.2
2015-Jun-25 11:30N 31°02' E 122°02'6615918.8
2015-Jun-25 11:23N 23°04' E 113°29'1011.5
2015-Jun-25 10:32N 22°55' E 113°28'1402.5
2015-Jun-25 10:32N 22°55' E 113°27'6666462.7
2015-Jun-25 10:25N 32°02' E 120°35'6572766.4
2015-Jun-25 10:11N 23°04' E 113°29'5583.9
2015-Jun-25 09:32N 22°10' E 113°37'48395.7
2015-Jun-25 09:25N 22°57' E 113°30'7276.8
2015-Jun-25 09:23N 23°04' E 113°29'626.5
2015-Jun-25 09:09N 23°02' E 113°23'6627311.1
2015-Jun-25 09:04N 32°02' E 120°35'6591293.3
2015-Jun-25 08:33N 23°04' E 113°26'4162.4
2015-Jun-25 08:32N 23°03' E 113°30'210.9
2015-Jun-25 08:23N 23°04' E 113°29'1 0.8
2015-Jun-25 07:28N 23°04' E 113°30'0 0.4
2015-Jun-25 07:21N 23°04' E 113°30'0 0.0
2015-Jun-25 06:33N 23°04' E 113°30'1 4.0
2015-Jun-25 06:23N 23°04' E 113°29'1 0.8
2015-Jun-25 05:28N 23°04' E 113°30'0 0.1
2015-Jun-25 05:13N 23°04' E 113°30'11114.6
2015-Jun-25 05:07N 22°53' E 113°30'1118.3
2015-Jun-25 04:31N 23°04' E 113°30'11208.4
2015-Jun-25 04:28N 22°53' E 113°31'66512740.8
2015-Jun-25 04:25N 32°02' E 120°35'657472908.3
2015-Jun-25 04:25N 23°04' E 113°30'660182859.6
2015-Jun-25 04:25N 31°54' E 120°54'33144.5
2015-Jun-25 04:25N 31°51' E 120°53'1425195.3
2015-Jun-25 04:25N 32°00' E 120°40'6677322.1
2015-Jun-25 04:19N 22°53' E 113°30'2421958.6
2015-Jun-25 04:12N 23°54' E 117°45'5134079.9
2015-Jun-25 04:04N 32°01' E 120°48'6691276.7
2015-Jun-25 03:33N 22°54' E 113°35'11156.4
2015-Jun-25 03:28N 23°04' E 113°30'1170.7
2015-Jun-25 03:19N 22°53' E 113°30'11122.4
2015-Jun-25 03:14N 23°04' E 113°30'115.7
2015-Jun-25 03:11N 23°04' E 113°29'6621015.7
2015-Jun-25 02:32N 32°00' E 120°47'105335.8
2015-Jun-25 02:32N 32°02' E 120°35'131453.3
2015-Jun-25 02:31N 31°59' E 120°50'6631193023.1
2015-Jun-25 02:31N 23°04' E 113°30'658394831.7
2015-Jun-25 02:31N 31°47' E 120°60'178959.1
2015-Jun-25 02:31N 32°01' E 120°48'6635667.9
2015-Jun-25 02:24N 23°04' E 113°30'1138.3
2015-Jun-25 02:07N 22°53' E 113°30'6671186.7
2015-Jun-25 01:33N 31°60' E 120°40'448806985.3
2015-Jun-25 01:33N 39°05' E 117°45'485873160.9
2015-Jun-25 01:33N 31°32' E 121°19'65843070.1
2015-Jun-25 01:32N 23°04' E 113°28'1 4.2
2015-Jun-25 01:25N 23°04' E 113°29'1160.1
2015-Jun-25 01:14N 22°57' E 113°37'1014.1
2015-Jun-25 00:31N 23°04' E 113°30'1 4.4
2015-Jun-25 00:21N 23°04' E 113°29'1 0.8
2015-Jun-24 23:28N 23°04' E 113°30'66022841.8
2015-Jun-24 23:27N 31°39' E 121°14'660792167.9
2015-Jun-24 23:27N 23°04' E 113°29'661741.8
2015-Jun-24 22:33N 31°38' E 121°18'66121838.2
2015-Jun-24 22:31N 23°04' E 113°29'663265167.5
2015-Jun-24 22:31N 32°01' E 120°48'66335613.8
2015-Jun-24 22:30N 23°04' E 113°29'661699.6
2015-Jun-24 21:33N 31°38' E 121°18'661125259.0
2015-Jun-24 21:33N 23°04' E 113°29'0 3.7
2015-Jun-24 21:31N 23°04' E 113°29'2447507.9
2015-Jun-24 21:29N 23°53' E 117°50'5137302.0
2015-Jun-24 21:25N 32°01' E 120°48'663762.9
2015-Jun-24 20:33N 23°04' E 113°29'66128331.6
2015-Jun-24 20:32N 31°38' E 121°18'661125275.5
2015-Jun-24 20:31N 23°04' E 113°29'66312627.9
2015-Jun-24 20:28N 32°01' E 120°48'3538.1
2015-Jun-24 19:33N 31°38' E 121°18'6617703.6
2015-Jun-24 19:28N 23°04' E 113°29'0 1.0
2015-Jun-24 19:21N 23°04' E 113°29'66321305.9
2015-Jun-24 19:19N 32°01' E 120°48'6694417.0
2015-Jun-24 19:10N 22°54' E 113°35'6661087.0
2015-Jun-24 18:33N 31°38' E 121°18'6618208.3
2015-Jun-24 18:28N 23°04' E 113°29'0 1.1
2015-Jun-24 18:21N 23°04' E 113°29'12234.8
2015-Jun-24 18:18N 22°52' E 113°32'669711.6
2015-Jun-24 17:21N 31°38' E 121°18'66911525.0
2015-Jun-24 17:18N 22°52' E 113°32'1214564.8
2015-Jun-24 17:18N 23°04' E 113°29'0 4.6
2015-Jun-24 17:16N 23°04' E 113°29'661925.1
2015-Jun-24 16:33N 31°38' E 121°18'6617753.7
2015-Jun-24 16:28N 23°04' E 113°29'0 1.1
2015-Jun-24 16:21N 23°04' E 113°29'661836.2
2015-Jun-24 15:34N 31°38' E 121°18'66176767.3
2015-Jun-24 15:33N 23°04' E 113°29'0 1.7
2015-Jun-24 15:28N 23°04' E 113°29'661697.2
2015-Jun-24 14:31N 31°38' E 121°18'661396728.7
2015-Jun-24 14:31N 23°04' E 113°29'0 5.8
2015-Jun-24 14:30N 23°04' E 113°29'0 0.0
2015-Jun-24 13:33N 23°04' E 113°29'0 4.4
2015-Jun-24 13:31N 23°04' E 113°29'0 0.1
2015-Jun-24 12:33N 23°04' E 113°29'659103144.2
2015-Jun-24 12:33N 31°33' E 121°20'13600.7
2015-Jun-24 12:31N 31°22' E 121°28'655674.8
2015-Jun-24 11:33N 23°04' E 113°29'6315550.7
2015-Jun-24 11:26N 30°57' E 121°17'33263.6
2015-Jun-24 11:19N 31°29' E 121°27'32661.5
2015-Jun-24 11:16N 31°08' E 121°54'6 8.4
2015-Jun-24 10:32N 31°12' E 121°49'201076.3
2015-Jun-24 10:31N 31°25' E 121°31'6593490.1
2015-Jun-24 10:19N 23°04' E 113°29'0 0.4
2015-Jun-24 10:06N 23°04' E 113°29'6621217.0
2015-Jun-24 09:33N 31°18' E 121°45'131328.1
2015-Jun-24 09:33N 31°22' E 121°30'37627.5
2015-Jun-24 09:29N 30°59' E 122°03'6604797.1
2015-Jun-24 09:21N 23°04' E 113°29'0 1.4
2015-Jun-24 09:16N 23°04' E 113°29'3791866.9
2015-Jun-24 09:04N 22°34' E 120°18'36318430.8
2015-Jun-24 09:03N 22°18' E 113°45'6811374.8
2015-Jun-24 08:33N 31°16' E 121°34'2410719.1
2015-Jun-24 08:33N 31°05' E 121°58'203301.4
2015-Jun-24 08:33N 31°23' E 121°47'532957317.2
2015-Jun-24 08:33N 22°38' E 120°15'37516282.1
2015-Jun-24 08:31N 23°04' E 113°29'0 0.4
2015-Jun-24 08:18N 23°04' E 113°29'51219.1
2015-Jun-24 08:04N 22°17' E 113°49'4 8.5
2015-Jun-24 07:33N 22°13' E 113°48'6792442788.6
2015-Jun-24 07:33N 31°12' E 121°30'185107.8
2015-Jun-24 07:33N 31°10' E 121°51'761065.1
2015-Jun-24 07:29N 32°00' E 120°43'6601671.3
2015-Jun-24 07:05N 23°04' E 113°29'6611253.3
2015-Jun-24 06:33N 31°17' E 121°45'66172110.7
2015-Jun-24 06:33N 23°04' E 113°29'574292.9
2015-Jun-24 06:32N 22°10' E 113°48'67544995.3
2015-Jun-24 06:31N 31°05' E 121°28'18177.2
2015-Jun-24 06:25N 31°23' E 121°31'65811606.5
2015-Jun-24 06:22N 23°04' E 113°29'6552857.6
2015-Jun-24 06:08N 32°01' E 120°32'510887.9
2015-Jun-24 05:33N 23°53' E 117°48'498358775.9
2015-Jun-24 05:33N 31°24' E 121°47'699167842.4
2015-Jun-24 05:33N 22°10' E 113°48'5717137.5
2015-Jun-24 05:33N 23°04' E 113°29'0 0.7
2015-Jun-24 05:22N 23°04' E 113°29'6574914.1
2015-Jun-24 05:14N 31°47' E 120°56'214431.2
2015-Jun-24 05:13N 32°01' E 120°37'5988.5
2015-Jun-24 04:33N 31°30' E 121°36'66699876.6
2015-Jun-24 04:33N 23°04' E 113°29'0 3.3
2015-Jun-24 04:31N 23°04' E 113°29'6598096.9
2015-Jun-24 04:26N 31°52' E 120°53'66119840.9
2015-Jun-24 04:24N 22°59' E 113°32'521169.9
2015-Jun-24 04:21N 22°10' E 113°48'6845778.9
2015-Jun-24 04:14N 31°15' E 121°31'980.1
2015-Jun-24 04:08N 31°23' E 121°31'6581147.2
2015-Jun-24 03:33N 23°04' E 113°29'636327270.3
2015-Jun-24 03:33N 31°08' E 121°13'636208230.1
2015-Jun-24 03:33N 23°04' E 113°29'65616181.6
2015-Jun-24 03:31N 31°21' E 121°31'68912464.0
2015-Jun-24 03:27N 22°10' E 113°48'57400.9
2015-Jun-24 03:19N 23°04' E 113°29'5775.7
2015-Jun-24 02:33N 22°10' E 113°48'5729240.8
2015-Jun-24 02:33N 23°04' E 113°29'635134435.0
2015-Jun-24 02:33N 31°09' E 121°10'63918697.9
2015-Jun-24 02:31N 23°02' E 113°24'527.6
2015-Jun-24 02:21N 23°04' E 113°29'637805.5
2015-Jun-24 01:33N 31°12' E 121°09'637163834.0
2015-Jun-24 01:33N 23°04' E 113°29'50155.4
2015-Jun-24 01:14N 22°17' E 113°49'667990.0
2015-Jun-24 00:33N 31°15' E 121°09'639287726.0
2015-Jun-24 00:33N 23°04' E 113°29'65934374.7
2015-Jun-24 00:32N 31°52' E 120°54'553497318.7
2015-Jun-24 00:32N 22°40' E 120°12'37210619.0
2015-Jun-24 00:30N 23°04' E 113°29'640636.2
2015-Jun-23 23:30N 31°16' E 121°09'64212559.2
2015-Jun-23 23:26N 23°01' E 113°31'4104.4
2015-Jun-23 23:24N 23°04' E 113°29'6588937.0
2015-Jun-23 23:20N 31°47' E 120°59'271607.1
2015-Jun-23 23:19N 32°01' E 120°31'660873.5
2015-Jun-23 22:33N 23°02' E 113°22'64666415.8
2015-Jun-23 22:33N 31°17' E 121°09'309737.6
2015-Jun-23 22:33N 31°46' E 121°04'32946.3
2015-Jun-23 22:31N 32°01' E 120°31'6556058.0
2015-Jun-23 22:24N 23°04' E 113°29'1 0.6
2015-Jun-23 21:33N 23°04' E 113°29'660139726.9
2015-Jun-23 21:33N 31°42' E 121°10'2512819.1
2015-Jun-23 21:33N 31°17' E 121°07'6404336.5
2015-Jun-23 21:24N 23°04' E 113°29'6556911.5
2015-Jun-23 21:19N 32°01' E 120°31'4459.2
2015-Jun-23 20:34N 31°38' E 121°16'6602375818.8
2015-Jun-23 20:34N 23°04' E 113°29'637458708.3
2015-Jun-23 20:33N 31°16' E 121°04'6371803.1
2015-Jun-23 20:12N 23°04' E 113°29'67086201.6
2015-Jun-23 20:12N 31°28' E 121°47'2335.6
2015-Jun-23 19:33N 31°33' E 121°21'659131822.8
2015-Jun-23 19:33N 23°04' E 113°29'66951220.5
2015-Jun-23 19:32N 31°25' E 121°48'42847.2
2015-Jun-23 19:29N 31°18' E 120°60'6361595.0
2015-Jun-23 19:06N 23°04' E 113°29'659339055.7
2015-Jun-23 19:05N 31°31' E 121°23'24965.4
2015-Jun-23 19:04N 31°19' E 120°59'424270.2
2015-Jun-23 19:03N 31°21' E 121°48'66613322.4
2015-Jun-23 19:00N 23°04' E 113°29'0 0.0
2015-Jun-22 19:33N 23°04' E 113°29'66226769.6
2015-Jun-22 19:32N 32°01' E 120°45'6624681.0
2015-Jun-22 19:24N 23°04' E 113°29'0 0.4
2015-Jun-22 18:33N 23°04' E 113°29'018.9
2015-Jun-22 18:33N 23°04' E 113°29'66232198.2
2015-Jun-22 18:31N 32°01' E 120°45'0 0.0
2015-Jun-22 17:33N 32°01' E 120°45'662125396.2
2015-Jun-22 17:33N 23°04' E 113°29'662665.5
2015-Jun-22 16:33N 32°01' E 120°45'662119190.7
2015-Jun-22 16:33N 23°05' E 113°28'183.0
2015-Jun-22 16:32N 23°04' E 113°29'0 2.1
2015-Jun-22 16:24N 23°04' E 113°29'0 0.4
2015-Jun-22 15:33N 23°04' E 113°29'060.9
2015-Jun-22 15:33N 23°04' E 113°29'66210830.1
2015-Jun-22 15:29N 32°01' E 120°45'662712.9
2015-Jun-22 14:33N 23°04' E 113°29'028.9
2015-Jun-22 14:33N 23°04' E 113°29'66227705.0
2015-Jun-22 14:31N 32°01' E 120°45'662689.2
2015-Jun-22 13:33N 23°04' E 113°29'019.2
2015-Jun-22 13:33N 23°04' E 113°29'92407.6
2015-Jun-22 13:32N 23°03' E 113°19'66833406.2
2015-Jun-22 13:31N 32°01' E 120°46'666690.3
2015-Jun-22 12:33N 23°02' E 113°24'5416.3
2015-Jun-22 12:32N 23°04' E 113°29'6639320.3
2015-Jun-22 12:28N 31°59' E 120°51'6638461.6
2015-Jun-22 12:24N 23°04' E 113°29'1 0.7
2015-Jun-22 11:33N 23°04' E 113°29'036.7
2015-Jun-22 11:33N 23°04' E 113°29'6611189914.2
2015-Jun-22 11:33N 31°55' E 120°53'6613211.9
2015-Jun-22 11:21N 23°04' E 113°29'6593806.6
2015-Jun-22 11:10N 31°51' E 120°54'12182.7
2015-Jun-22 11:06N 32°01' E 120°47'6631202.2
2015-Jun-22 10:33N 23°04' E 113°29'024.4
2015-Jun-22 10:33N 23°04' E 113°29'52445.3
2015-Jun-22 10:32N 23°05' E 113°34'6597128.7
2015-Jun-22 10:27N 32°01' E 120°48'663742.4
2015-Jun-22 09:33N 23°04' E 113°29'024.6
2015-Jun-22 09:33N 23°04' E 113°29'1137.4
2015-Jun-22 09:16N 22°56' E 113°36'647918.0
2015-Jun-22 08:33N 31°08' E 121°28'64564481.2
2015-Jun-22 08:33N 23°04' E 113°29'023.5
2015-Jun-22 08:32N 23°04' E 113°29'0 0.0
2015-Jun-22 07:33N 23°04' E 113°29'66379555.1
2015-Jun-22 07:33N 32°01' E 120°48'6619756.3
2015-Jun-22 07:33N 31°04' E 121°28'39784.6
2015-Jun-22 07:30N 31°41' E 121°11'6602183.8
2015-Jun-22 07:12N 23°04' E 113°29'6621046.1
2015-Jun-22 06:34N 31°57' E 120°52'66221672.4
2015-Jun-22 06:32N 23°04' E 113°29'660237630.6
2015-Jun-22 06:32N 31°37' E 121°16'6604940.6
2015-Jun-22 06:24N 23°04' E 113°29'98522172.4
2015-Jun-22 06:21N 39°05' E 117°45'48616994.1
2015-Jun-22 06:19N 31°32' E 121°22'483635.8
2015-Jun-22 05:34N 39°04' E 117°51'985443391.4
2015-Jun-22 05:33N 23°04' E 113°29'659215798.9
2015-Jun-22 05:33N 31°34' E 121°20'66811971.6
2015-Jun-22 05:30N 22°55' E 113°26'8260.0
2015-Jun-22 05:28N 23°02' E 113°24'1458187396.6
2015-Jun-22 05:28N 00°02' E 121°24'145822237.0
2015-Jun-22 05:24N 23°04' E 113°29'660781.8
2015-Jun-22 04:33N 31°31' E 121°24'485194032.3
2015-Jun-22 04:33N 39°04' E 117°50'985118236.3
2015-Jun-22 04:32N 23°04' E 113°29'036.0
2015-Jun-22 04:32N 23°04' E 113°29'98614971.1
2015-Jun-22 04:28N 39°04' E 117°51'9961195053.0
2015-Jun-22 04:28N 22°53' E 113°30'116326.1
2015-Jun-22 04:28N 23°02' E 113°24'5 5.2
2015-Jun-22 03:34N 23°04' E 113°29'985253364.7
2015-Jun-22 03:33N 39°05' E 117°46'985186655.9
2015-Jun-22 03:33N 23°05' E 113°28'98528148.2
2015-Jun-22 03:31N 39°04' E 117°51'2112.9
2015-Jun-22 03:30N 39°04' E 117°48'98530036.5
2015-Jun-22 03:28N 23°04' E 113°32'65843862.2
2015-Jun-22 03:27N 31°29' E 121°27'6602592.8
2015-Jun-22 03:12N 23°04' E 113°29'0 0.4
2015-Jun-22 02:34N 23°04' E 113°29'12808.5
2015-Jun-22 02:33N 23°04' E 113°28'165.3
2015-Jun-22 02:33N 23°04' E 113°29'660113064.9
2015-Jun-22 02:32N 31°26' E 121°30'66031267.1
2015-Jun-22 02:31N 23°02' E 113°30'2 2.2
2015-Jun-22 01:33N 23°04' E 113°29'985186698.9
2015-Jun-22 01:33N 39°05' E 117°45'98988979.0
2015-Jun-22 01:33N 23°02' E 113°23'7219.5
2015-Jun-22 01:31N 23°02' E 113°30'849.7
2015-Jun-22 01:21N 22°57' E 113°36'9911241.0
2015-Jun-22 00:34N 39°04' E 117°51'985177353.5
2015-Jun-22 00:33N 23°04' E 113°29'101091.1
2015-Jun-22 00:33N 22°57' E 113°36'961.8
2015-Jun-22 00:24N 23°04' E 113°29'10108.6
2015-Jun-22 00:18N 22°55' E 113°26'1013.2
2015-Jun-21 23:33N 23°04' E 113°29'060.1
2015-Jun-21 23:33N 23°04' E 113°29'933878.1
2015-Jun-21 23:32N 22°57' E 113°36'6792.4
2015-Jun-21 23:32N 22°54' E 113°29'9954653.3
2015-Jun-21 23:19N 39°04' E 117°48'9851294.5
2015-Jun-21 22:34N 23°04' E 113°29'0 1.6
2015-Jun-21 22:24N 23°04' E 113°29'0 0.4
2015-Jun-21 21:33N 23°04' E 113°29'0 0.0
2015-Jun-21 20:33N 23°04' E 113°29'056.2
2015-Jun-21 20:32N 23°04' E 113°29'0 0.3
2015-Jun-21 19:33N 23°04' E 113°29'028.1
2015-Jun-21 19:32N 23°04' E 113°29'683039088.2
2015-Jun-21 19:22N 33°15' W 117°56'68308402.9
2015-Jun-21 18:33N 23°04' E 113°29'6832161804.5
2015-Jun-21 18:31N 33°12' W 117°55'683256799.0
2015-Jun-21 18:23N 23°04' E 113°29'0 0.3
2015-Jun-21 17:33N 23°04' E 113°29'6833614931.5
2015-Jun-21 17:33N 33°10' W 117°55'68324919385.2
2015-Jun-21 17:32N 23°04' E 113°29'310.0
2015-Jun-21 17:15N 23°02' E 113°32'657956.5
2015-Jun-21 16:34N 31°23' E 121°30'657147844.5
2015-Jun-21 16:33N 23°04' E 113°29'64222223.5
2015-Jun-21 16:32N 31°04' E 121°28'61281050563.7
2015-Jun-21 16:31N 33°13' W 117°56'683053453.4
2015-Jun-21 16:23N 23°04' E 113°29'6603164.2
2015-Jun-21 16:11N 30°58' E 122°05'61019666.6
2015-Jun-21 15:33N 33°13' W 117°56'68301294130.3
2015-Jun-21 15:33N 23°04' E 113°29'060.1
2015-Jun-21 15:32N 23°04' E 113°29'66215565.3
2015-Jun-21 15:30N 31°02' E 122°03'66612812.3
2015-Jun-21 15:27N 22°54' E 113°35'898.0
2015-Jun-21 15:22N 22°55' E 113°27'1011.8
2015-Jun-21 14:32N 23°04' E 113°29'66169963.9
2015-Jun-21 14:32N 31°07' E 121°56'6611943.5
2015-Jun-21 14:11N 23°04' E 113°29'6611040.3
2015-Jun-21 13:33N 31°14' E 121°47'66141720.8
2015-Jun-21 13:32N 23°04' E 113°29'0 2.0
2015-Jun-21 13:23N 23°04' E 113°29'660786.2
2015-Jun-21 12:33N 31°22' E 121°37'660132082.6
2015-Jun-21 12:33N 23°04' E 113°29'062.8
2015-Jun-21 12:33N 23°04' E 113°29'3253.1
2015-Jun-21 12:32N 23°02' E 113°31'312.5
2015-Jun-21 12:18N 23°04' E 113°29'3 4.6
2015-Jun-21 11:34N 23°01' E 113°31'660339632.5
2015-Jun-21 11:33N 31°28' E 121°26'659474336.1
2015-Jun-21 11:33N 23°04' E 113°29'121893.9
2015-Jun-21 11:33N 22°54' E 113°35'11213.9
2015-Jun-21 11:30N 23°04' E 113°29'0 0.4
2015-Jun-21 11:10N 23°04' E 113°29'6591087.1
2015-Jun-21 10:33N 31°36' E 121°17'662119086.4
2015-Jun-21 10:33N 23°04' E 113°25'459.7
2015-Jun-21 10:29N 23°04' E 113°30'0 5.7
2015-Jun-21 10:25N 23°04' E 113°29'6267225.5
2015-Jun-21 10:19N 31°02' E 121°04'50926167.7
2015-Jun-21 10:18N 39°04' E 117°47'512682.2
2015-Jun-21 09:33N 31°05' E 121°28'511114957.5
2015-Jun-21 09:33N 39°04' E 117°50'5855.0
2015-Jun-21 09:33N 39°05' E 117°44'98515559.3
2015-Jun-21 09:29N 23°04' E 113°30'65917841.0
2015-Jun-21 09:27N 31°43' E 121°07'65920464.6
2015-Jun-21 09:25N 23°04' E 113°29'990.0
2015-Jun-21 09:18N 22°57' E 113°36'679.4
2015-Jun-21 09:14N 23°01' E 113°31'6 9.3
2015-Jun-21 08:34N 22°57' E 113°36'991111539.6
2015-Jun-21 08:33N 39°04' E 117°50'2545262.8
2015-Jun-21 08:30N 36°55' E 122°29'35447185.4
2015-Jun-21 08:30N 31°05' E 121°28'64248187.4
2015-Jun-21 08:29N 23°04' E 113°30'3152.9
2015-Jun-21 08:28N 23°01' E 113°31'6292786.5
2015-Jun-21 08:14N 30°57' E 121°12'62829735.4
2015-Jun-21 08:13N 23°04' E 113°29'6557054.9
2015-Jun-21 08:07N 31°21' E 121°27'6561164.1
2015-Jun-21 07:33N 23°01' E 113°31'345.1
2015-Jun-21 07:29N 23°04' E 113°30'0 6.4
2015-Jun-21 07:25N 23°04' E 113°29'63022024.5
2015-Jun-21 07:23N 30°58' E 121°16'51410284.3
2015-Jun-21 07:20N 39°04' E 117°50'4955518.7
2015-Jun-21 07:15N 31°21' E 121°27'657951.3
2015-Jun-21 06:33N 22°57' E 113°36'9128.7
2015-Jun-21 06:29N 23°04' E 113°30'369.2
2015-Jun-21 06:26N 23°01' E 113°31'65747289.7
2015-Jun-21 06:25N 31°22' E 121°28'4963477.0
2015-Jun-21 06:17N 39°04' E 117°48'98615292.4
2015-Jun-21 06:13N 23°04' E 113°29'6581004.1
2015-Jun-21 05:33N 31°24' E 121°31'495197841.4
2015-Jun-21 05:33N 39°04' E 117°49'98534441.9
2015-Jun-21 05:31N 23°04' E 113°30'3573.2
2015-Jun-21 05:31N 23°01' E 113°31'633284943.2
2015-Jun-21 05:31N 30°58' E 121°18'614548510.2
2015-Jun-21 05:23N 33°28' W 117°42'6033452506.3
2015-Jun-21 05:23N 39°04' E 117°47'98564492.0
2015-Jun-21 05:22N 23°04' E 113°29'9865433.9
2015-Jun-21 05:11N 39°04' E 117°49'60329424.7
2015-Jun-21 04:32N 33°28' W 117°42'6031128462.2
2015-Jun-21 04:30N 39°04' E 117°51'491196233.9
2015-Jun-21 04:29N 31°27' E 121°28'301214.5
2015-Jun-21 04:28N 30°58' E 121°18'63213068.5
2015-Jun-21 04:25N 23°04' E 113°29'051.8
2015-Jun-21 04:25N 23°04' E 113°29'98690996.2
2015-Jun-21 04:24N 39°04' E 117°50'0 4.5
2015-Jun-21 04:20N 39°04' E 117°50'9927270.5
2015-Jun-21 04:12N 22°57' E 113°36'63753.1
2015-Jun-21 04:12N 23°01' E 113°31'9888983.9
2015-Jun-21 04:05N 39°05' E 117°46'3 6.4
2015-Jun-21 03:33N 39°04' E 117°50'98846801.2
2015-Jun-21 03:32N 23°01' E 113°31'423.3
2015-Jun-21 03:22N 23°04' E 113°29'10536.8
2015-Jun-21 03:21N 22°57' E 113°36'66120324.8
2015-Jun-21 03:19N 31°31' E 121°21'3330011.4
2015-Jun-21 03:19N 30°58' E 121°18'6326048.7
2015-Jun-21 03:13N 23°04' E 113°29'98678841.0
2015-Jun-21 03:12N 39°05' E 117°44'517757.4
2015-Jun-21 02:31N 30°58' E 121°18'515617430.1
2015-Jun-21 02:31N 39°04' E 117°51'98863538.0
2015-Jun-21 02:30N 23°01' E 113°31'988104638.6
2015-Jun-21 02:29N 39°04' E 117°50'0 9.9
2015-Jun-21 02:28N 39°04' E 117°50'98518573.8
2015-Jun-21 02:25N 23°04' E 113°29'9855341.5
2015-Jun-21 02:14N 39°05' E 117°46'9917405.2
2015-Jun-21 02:06N 22°57' E 113°36'9911834.8
2015-Jun-21 01:34N 39°04' E 117°48'6033324154.1
2015-Jun-21 01:32N 33°28' W 117°42'683574339.9
2015-Jun-21 01:27N 22°57' E 113°36'10321.4
2015-Jun-21 01:25N 23°04' E 113°29'056.8
2015-Jun-21 01:25N 23°04' E 113°29'63218194.4
2015-Jun-21 01:23N 30°58' E 121°18'515623.3
2015-Jun-21 00:33N 39°04' E 117°48'99119086.2
2015-Jun-21 00:30N 22°57' E 113°36'63419837.3
2015-Jun-21 00:28N 30°58' E 121°18'63213219.5
2015-Jun-21 00:25N 23°04' E 113°29'049.8
2015-Jun-21 00:25N 23°04' E 113°29'632704.9
2015-Jun-20 23:31N 30°58' E 121°18'6326459.9
2015-Jun-20 23:25N 23°04' E 113°29'0 6.5
2015-Jun-20 23:22N 23°04' E 113°29'9855893.1
2015-Jun-20 23:12N 39°05' E 117°46'516768.6
2015-Jun-20 22:31N 30°59' E 121°19'6336024.2
2015-Jun-20 22:25N 23°04' E 113°29'059.4
2015-Jun-20 22:25N 23°04' E 113°29'333.8
2015-Jun-20 22:19N 23°01' E 113°31'638844.4
2015-Jun-20 21:33N 30°59' E 121°24'6385278.0
2015-Jun-20 21:26N 23°01' E 113°31'456.4
2015-Jun-20 21:22N 23°04' E 113°29'052.7
2015-Jun-20 21:22N 23°04' E 113°29'641769.8
2015-Jun-20 20:32N 31°02' E 121°29'6415453.7
2015-Jun-20 20:25N 23°04' E 113°29'0 1.3
2015-Jun-20 20:10N 23°04' E 113°29'4 5.4
2015-Jun-20 19:28N 23°01' E 113°31'475.7
2015-Jun-20 19:25N 23°04' E 113°29'0 0.0
2015-Jun-20 18:25N 23°04' E 113°29'051.8
2015-Jun-20 18:25N 23°04' E 113°29'31771.9
2015-Jun-20 18:25N 23°01' E 113°31'6522611.8
2015-Jun-20 18:10N 31°13' E 121°30'6511018.4
2015-Jun-20 17:31N 23°01' E 113°31'653138375.0
2015-Jun-20 17:31N 31°15' E 121°31'6526647.5
2015-Jun-20 17:25N 23°04' E 113°29'0 5.7
2015-Jun-20 17:22N 23°04' E 113°29'656814.0
2015-Jun-20 16:33N 31°19' E 121°33'657169069.6
2015-Jun-20 16:33N 23°01' E 113°31'324.2
2015-Jun-20 16:25N 23°04' E 113°29'0 0.1
2015-Jun-20 15:25N 23°04' E 113°29'367.6
2015-Jun-20 15:22N 23°01' E 113°31'419.2
2015-Jun-20 15:10N 23°04' E 113°29'4 5.9
2015-Jun-20 14:33N 23°01' E 113°31'7224.5
2015-Jun-20 14:31N 22°56' E 113°36'6597801.6
2015-Jun-20 14:26N 31°22' E 121°30'65662159.8
2015-Jun-20 14:25N 23°04' E 113°29'053.5
2015-Jun-20 14:25N 23°04' E 113°29'656739.7
2015-Jun-20 13:31N 31°22' E 121°30'65817411.0
2015-Jun-20 13:29N 23°01' E 113°31'453.8
2015-Jun-20 13:25N 23°04' E 113°29'056.1
2015-Jun-20 13:25N 23°04' E 113°29'9109.0
2015-Jun-20 13:19N 22°57' E 113°36'10004473.9
2015-Jun-20 13:06N 37°47' E 122°24'1 1.2
2015-Jun-20 12:33N 37°48' E 122°24'38923761.8
2015-Jun-20 12:32N 31°21' E 121°32'65737528.6
2015-Jun-20 12:31N 23°04' E 113°29'335.1
2015-Jun-20 12:25N 23°01' E 113°31'624.7
2015-Jun-20 12:10N 22°57' E 113°36'103507.8
2015-Jun-20 12:10N 23°04' E 113°29'6521036.7
2015-Jun-20 11:32N 31°15' E 121°32'65244291.3
2015-Jun-20 11:31N 23°04' E 113°29'3190.7
2015-Jun-20 11:30N 23°01' E 113°31'441.9
2015-Jun-20 11:25N 23°04' E 113°29'647749.0
2015-Jun-20 10:33N 31°11' E 121°28'64717791.3
2015-Jun-20 10:31N 23°04' E 113°29'9193.9
2015-Jun-20 10:28N 22°57' E 113°36'10194.7
2015-Jun-20 10:25N 23°04' E 113°29'6579689.7
2015-Jun-20 10:21N 31°23' E 121°30'658124746.4
2015-Jun-20 10:21N 23°01' E 113°31'645767.8
2015-Jun-20 09:30N 31°05' E 121°28'65017330.5
2015-Jun-20 09:28N 22°51' E 113°34'52140.4
2015-Jun-20 09:28N 22°57' E 113°36'10204.0
2015-Jun-20 09:25N 23°04' E 113°29'494.0
2015-Jun-20 09:23N 23°01' E 113°31'356.2
2015-Jun-20 09:19N 23°04' E 113°29'660869.3
2015-Jun-20 08:33N 31°40' E 121°13'66016160.5
2015-Jun-20 08:31N 23°04' E 113°29'9851.6
2015-Jun-20 08:30N 22°57' E 113°36'6557.1
2015-Jun-20 08:30N 23°01' E 113°31'413.6
2015-Jun-20 08:13N 23°04' E 113°29'659997.9
2015-Jun-20 07:33N 31°34' E 121°19'  

Dump ship's entire track history